SIA23 KJFK-WSSS
Flight info
| Callsign | SIA23 |
|---|---|
| Flight time | N/A |
| Altitude | 33000 |
| Route | BETTE DCT ACK DCT BRADD DCT ALLRY/M085F330 DCT 51N050W 53N040W 54N030W 54N020W DCT DOGAL/N0488F330 DCT BEXET/N0486F350 DCT INKUR DCT LIFFY UL975 WAL M16 DOLAS/N0486F370 L603 LAMSO DCT AMSAN DCT KUMER DCT OMELO DCT PEPIK DCT BERVA DCT TEKVI DCT ZURFA DCT LUVEL DCT BUDOP DCT UDROS DCT CRM/N0492F390 UM11 TBN UR317 REBLO M11 LUSAL N199 BAKUV N701 LARGI B701 KRS A240 INRAK B449 DOLOS B475 NINOP A909 LEMOD N644 DI A466 LEBIB/N0491F410 A466 SULOM M890 LKN R460 BBN P646 POXEM M626 IKOGA Y24 PASVA Y514 NUFFA DCT PIBAP DCT PASPU DCT NYLON DCT POSUB DCT SANAT |
| Aircraft | A359/H-SDE2E3GHIJ3J4J5LM1ORWXY/LB1D1 |
Departure
| Time | 2026-05-06 01:50 |
|---|---|
| Airport | John F. Kennedy International Airport (KJFK) |
Arrival
| Time | N/A |
|---|---|
| Airport | Singapore Changi Airport (WSSS) |
| Time | Latitude | Longitude | Altitude | Speed | Heading |
|---|---|---|---|---|---|
| 2026-05-06 00:56 | 40.65015 | -73.78409 | 27 ft | 0 kts | 93° |
| 2026-05-06 01:12 | 40.65015 | -73.78410 | 26 ft | 0 kts | 93° |
| 2026-05-06 01:26 | 40.65015 | -73.78411 | 27 ft | 1 kts | 93° |
| 2026-05-06 01:27 | 40.65013 | -73.78407 | 27 ft | 3 kts | 99° |
| 2026-05-06 01:27 | 40.65014 | -73.78427 | 27 ft | 3 kts | 80° |
| 2026-05-06 01:27 | 40.65009 | -73.78453 | 26 ft | 3 kts | 69° |
| 2026-05-06 01:27 | 40.65002 | -73.78474 | 25 ft | 3 kts | 51° |
| 2026-05-06 01:28 | 40.64991 | -73.78490 | 26 ft | 3 kts | 24° |
| 2026-05-06 01:28 | 40.64976 | -73.78496 | 26 ft | 2 kts | 7° |
| 2026-05-06 01:28 | 40.64961 | -73.78499 | 25 ft | 2 kts | 7° |
| 2026-05-06 01:28 | 40.64957 | -73.78499 | 25 ft | 0 kts | 7° |
| 2026-05-06 01:38 | 40.64967 | -73.78498 | 26 ft | 5 kts | 7° |
| 2026-05-06 01:39 | 40.65010 | -73.78490 | 26 ft | 8 kts | 7° |
| 2026-05-06 01:39 | 40.65076 | -73.78470 | 26 ft | 11 kts | 16° |
| 2026-05-06 01:39 | 40.65161 | -73.78435 | 26 ft | 15 kts | 20° |
| 2026-05-06 01:39 | 40.65237 | -73.78364 | 26 ft | 9 kts | 85° |
| 2026-05-06 01:40 | 40.65217 | -73.78272 | 26 ft | 11 kts | 115° |
| 2026-05-06 01:40 | 40.65171 | -73.78172 | 26 ft | 14 kts | 121° |
| 2026-05-06 01:40 | 40.65116 | -73.78050 | 26 ft | 17 kts | 121° |
| 2026-05-06 01:40 | 40.65051 | -73.77906 | 31 ft | 19 kts | 121° |
| 2026-05-06 01:41 | 40.65037 | -73.77750 | 29 ft | 17 kts | 43° |
| 2026-05-06 01:41 | 40.65068 | -73.77746 | 31 ft | 1 kts | 335° |
| 2026-05-06 01:41 | 40.65117 | -73.77854 | 29 ft | 20 kts | 302° |
| 2026-05-06 01:41 | 40.65164 | -73.77934 | 32 ft | 9 kts | 326° |
| 2026-05-06 01:42 | 40.65213 | -73.77925 | 29 ft | 8 kts | 20° |
| 2026-05-06 01:42 | 40.65279 | -73.77866 | 30 ft | 15 kts | 30° |
| 2026-05-06 01:42 | 40.65344 | -73.77776 | 26 ft | 10 kts | 105° |
| 2026-05-06 01:42 | 40.65297 | -73.77682 | 26 ft | 15 kts | 121° |
| 2026-05-06 01:43 | 40.65230 | -73.77536 | 32 ft | 22 kts | 119° |
| 2026-05-06 01:43 | 40.65144 | -73.77342 | 26 ft | 27 kts | 121° |
| 2026-05-06 01:43 | 40.65049 | -73.77135 | 27 ft | 21 kts | 122° |
| 2026-05-06 01:43 | 40.64983 | -73.76993 | 27 ft | 20 kts | 121° |
| 2026-05-06 01:44 | 40.64900 | -73.76814 | 27 ft | 26 kts | 119° |
| 2026-05-06 01:44 | 40.64923 | -73.76655 | 27 ft | 17 kts | 15° |
| 2026-05-06 01:44 | 40.65051 | -73.76566 | 27 ft | 23 kts | 31° |
| 2026-05-06 01:44 | 40.65093 | -73.76508 | 27 ft | 0 kts | 75° |
| 2026-05-06 01:45 | 40.65094 | -73.76504 | 28 ft | 2 kts | 75° |
| 2026-05-06 01:45 | 40.65094 | -73.76466 | 28 ft | 0 kts | 107° |
| 2026-05-06 01:47 | 40.65092 | -73.76458 | 28 ft | 3 kts | 108° |
| 2026-05-06 01:48 | 40.65084 | -73.76435 | 28 ft | 2 kts | 115° |
| 2026-05-06 01:48 | 40.65082 | -73.76430 | 28 ft | 2 kts | 115° |
| 2026-05-06 01:48 | 40.65051 | -73.76378 | 28 ft | 12 kts | 142° |
| 2026-05-06 01:48 | 40.64964 | -73.76405 | 28 ft | 17 kts | 208° |
| 2026-05-06 01:49 | 40.64836 | -73.76499 | 27 ft | 25 kts | 209° |
| 2026-05-06 01:49 | 40.64625 | -73.76665 | 29 ft | 57 kts | 210° |
| 2026-05-06 01:49 | 40.64080 | -73.77092 | 28 ft | 110 kts | 209° |
| 2026-05-06 01:49 | 40.63322 | -73.77669 | 30 ft | 142 kts | 209° |
| 2026-05-06 01:50 | 40.62389 | -73.78362 | 336 ft | 156 kts | 208° |
| 2026-05-06 01:50 | 40.61459 | -73.79080 | 900 ft | 154 kts | 208° |
| 2026-05-06 01:50 | 40.60535 | -73.79727 | 1658 ft | 145 kts | 208° |
| 2026-05-06 01:50 | 40.59637 | -73.80274 | 2318 ft | 141 kts | 207° |
| 2026-05-06 01:51 | 40.58721 | -73.80739 | 2812 ft | 142 kts | 205° |
| 2026-05-06 01:51 | 40.57760 | -73.81125 | 3231 ft | 146 kts | 202° |
| 2026-05-06 01:51 | 40.56768 | -73.81408 | 3641 ft | 148 kts | 198° |
| 2026-05-06 01:51 | 40.55745 | -73.81563 | 4030 ft | 149 kts | 193° |
| 2026-05-06 01:52 | 40.54683 | -73.81578 | 4264 ft | 159 kts | 188° |
| 2026-05-06 01:52 | 40.53546 | -73.81438 | 4600 ft | 162 kts | 181° |
| 2026-05-06 01:52 | 40.52460 | -73.81125 | 4925 ft | 165 kts | 175° |
| 2026-05-06 01:52 | 40.51320 | -73.80613 | 5069 ft | 180 kts | 168° |
| 2026-05-06 01:53 | 40.50187 | -73.79889 | 5422 ft | 180 kts | 161° |
| 2026-05-06 01:53 | 40.49155 | -73.78973 | 5770 ft | 183 kts | 153° |
| 2026-05-06 01:53 | 40.48159 | -73.77805 | 5997 ft | 196 kts | 143° |
| 2026-05-06 01:53 | 40.47286 | -73.76437 | 6348 ft | 200 kts | 134° |
| 2026-05-06 01:54 | 40.46549 | -73.74865 | 6821 ft | 202 kts | 124° |
| 2026-05-06 01:54 | 40.46023 | -73.73183 | 7336 ft | 201 kts | 112° |
| 2026-05-06 01:54 | 40.45895 | -73.71290 | 7591 ft | 219 kts | 85° |
| 2026-05-06 01:54 | 40.46330 | -73.69300 | 7885 ft | 228 kts | 63° |
| 2026-05-06 01:55 | 40.46999 | -73.67499 | 8579 ft | 210 kts | 62° |
| 2026-05-06 01:55 | 40.47709 | -73.65809 | 8895 ft | 222 kts | 58° |
| 2026-05-06 01:55 | 40.48555 | -73.64006 | 9104 ft | 231 kts | 55° |
| 2026-05-06 01:55 | 40.49433 | -73.62197 | 8999 ft | 258 kts | 60° |
| 2026-05-06 01:56 | 40.50263 | -73.59711 | 7383 ft | 346 kts | 75° |
| 2026-05-06 01:56 | 40.50739 | -73.56418 | 7270 ft | 372 kts | 84° |
| 2026-05-06 01:56 | 40.50996 | -73.53069 | 7944 ft | 368 kts | 86° |
| 2026-05-06 01:56 | 40.51216 | -73.49799 | 9113 ft | 350 kts | 86° |
| 2026-05-06 01:57 | 40.51443 | -73.46703 | 10023 ft | 343 kts | 86° |
| 2026-05-06 01:57 | 40.51708 | -73.43527 | 10480 ft | 350 kts | 85° |
| 2026-05-06 01:57 | 40.52006 | -73.40302 | 10751 ft | 362 kts | 84° |
| 2026-05-06 01:57 | 40.52336 | -73.36956 | 11038 ft | 373 kts | 84° |
| 2026-05-06 01:58 | 40.52680 | -73.33585 | 11353 ft | 382 kts | 84° |
| 2026-05-06 01:58 | 40.53037 | -73.30087 | 11656 ft | 391 kts | 84° |
| 2026-05-06 01:58 | 40.53403 | -73.26494 | 11947 ft | 400 kts | 84° |
| 2026-05-06 01:58 | 40.53772 | -73.22849 | 12245 ft | 408 kts | 84° |
| 2026-05-06 01:59 | 40.54149 | -73.19097 | 12597 ft | 415 kts | 84° |
| 2026-05-06 01:59 | 40.54526 | -73.15333 | 12988 ft | 419 kts | 84° |
| 2026-05-06 01:59 | 40.54908 | -73.11500 | 13416 ft | 423 kts | 84° |
| 2026-05-06 01:59 | 40.55287 | -73.07679 | 13793 ft | 428 kts | 84° |
| 2026-05-06 02:00 | 40.55679 | -73.03744 | 14194 ft | 431 kts | 83° |
| 2026-05-06 02:00 | 40.56283 | -72.99933 | 14586 ft | 434 kts | 75° |
| 2026-05-06 02:00 | 40.57157 | -72.96133 | 14999 ft | 437 kts | 72° |
| 2026-05-06 02:00 | 40.58125 | -72.92319 | 15382 ft | 440 kts | 71° |
| 2026-05-06 02:01 | 40.59105 | -72.88581 | 15806 ft | 443 kts | 71° |
| 2026-05-06 02:01 | 40.60144 | -72.84637 | 16248 ft | 446 kts | 71° |
| 2026-05-06 02:01 | 40.61148 | -72.80796 | 16678 ft | 448 kts | 71° |
| 2026-05-06 02:01 | 40.62156 | -72.76898 | 17111 ft | 450 kts | 72° |
| 2026-05-06 02:02 | 40.63148 | -72.73026 | 17511 ft | 453 kts | 72° |
| 2026-05-06 02:02 | 40.64165 | -72.69032 | 17974 ft | 455 kts | 72° |
| 2026-05-06 02:02 | 40.65159 | -72.65116 | 18369 ft | 458 kts | 72° |
| 2026-05-06 02:02 | 40.66171 | -72.61120 | 18723 ft | 461 kts | 72° |
| 2026-05-06 02:03 | 40.67187 | -72.57108 | 19087 ft | 463 kts | 72° |
| 2026-05-06 02:03 | 40.68206 | -72.53075 | 19429 ft | 466 kts | 72° |
| 2026-05-06 02:03 | 40.69233 | -72.49004 | 19784 ft | 468 kts | 72° |
| 2026-05-06 02:03 | 40.70256 | -72.44947 | 20144 ft | 471 kts | 72° |
| 2026-05-06 02:04 | 40.71283 | -72.40866 | 20477 ft | 474 kts | 72° |
| 2026-05-06 02:04 | 40.72316 | -72.36752 | 20854 ft | 476 kts | 72° |
| 2026-05-06 02:04 | 40.73363 | -72.32576 | 21220 ft | 479 kts | 72° |
| 2026-05-06 02:04 | 40.74398 | -72.28440 | 21601 ft | 481 kts | 72° |
| 2026-05-06 02:05 | 40.75451 | -72.24224 | 22007 ft | 483 kts | 71° |
| 2026-05-06 02:05 | 40.76508 | -72.19984 | 22399 ft | 485 kts | 71° |
| 2026-05-06 02:05 | 40.77566 | -72.15736 | 22779 ft | 488 kts | 71° |
| 2026-05-06 02:05 | 40.78618 | -72.11503 | 23161 ft | 490 kts | 71° |
| 2026-05-06 02:06 | 40.79683 | -72.07211 | 23565 ft | 492 kts | 71° |
| 2026-05-06 02:06 | 40.80751 | -72.02896 | 23883 ft | 495 kts | 71° |
| 2026-05-06 02:06 | 40.81802 | -71.98646 | 24199 ft | 497 kts | 71° |
| 2026-05-06 02:06 | 40.82877 | -71.94288 | 24527 ft | 499 kts | 71° |
| 2026-05-06 02:07 | 40.83946 | -71.89947 | 24844 ft | 501 kts | 71° |
| 2026-05-06 02:07 | 40.85029 | -71.85544 | 25175 ft | 503 kts | 71° |
| 2026-05-06 02:07 | 40.86110 | -71.81136 | 25500 ft | 505 kts | 71° |
| 2026-05-06 02:07 | 40.87194 | -71.76710 | 25816 ft | 507 kts | 71° |
| 2026-05-06 02:08 | 40.88281 | -71.72263 | 26124 ft | 509 kts | 71° |
| 2026-05-06 02:08 | 40.89366 | -71.67815 | 26447 ft | 510 kts | 71° |
| 2026-05-06 02:08 | 40.90453 | -71.63352 | 26752 ft | 512 kts | 70° |
| 2026-05-06 02:08 | 40.91543 | -71.58865 | 27062 ft | 514 kts | 70° |
| 2026-05-06 02:09 | 40.92637 | -71.54357 | 27350 ft | 516 kts | 70° |
| 2026-05-06 02:09 | 40.93720 | -71.49879 | 27649 ft | 518 kts | 70° |
| 2026-05-06 02:09 | 40.94814 | -71.45354 | 27943 ft | 519 kts | 70° |
| 2026-05-06 02:09 | 40.95912 | -71.40799 | 28234 ft | 521 kts | 70° |
| 2026-05-06 02:10 | 40.97008 | -71.36248 | 28502 ft | 523 kts | 70° |
| 2026-05-06 02:10 | 40.98118 | -71.31624 | 28780 ft | 524 kts | 70° |
| 2026-05-06 02:10 | 40.99220 | -71.27028 | 29150 ft | 523 kts | 70° |
| 2026-05-06 02:10 | 41.00314 | -71.22447 | 29547 ft | 522 kts | 70° |
| 2026-05-06 02:11 | 41.01408 | -71.17865 | 29915 ft | 521 kts | 70° |
| 2026-05-06 02:11 | 41.02482 | -71.13355 | 30254 ft | 520 kts | 70° |
| 2026-05-06 02:11 | 41.03563 | -71.08807 | 30613 ft | 518 kts | 70° |
| 2026-05-06 02:11 | 41.04627 | -71.04323 | 30958 ft | 515 kts | 70° |
| 2026-05-06 02:12 | 41.05708 | -70.99757 | 31286 ft | 513 kts | 70° |
| 2026-05-06 02:12 | 41.06779 | -70.95225 | 31601 ft | 511 kts | 69° |
| 2026-05-06 02:12 | 41.07837 | -70.90738 | 31919 ft | 509 kts | 69° |
| 2026-05-06 02:12 | 41.08890 | -70.86268 | 32208 ft | 508 kts | 69° |
| 2026-05-06 02:13 | 41.09938 | -70.81809 | 32489 ft | 506 kts | 69° |
| 2026-05-06 02:13 | 41.10978 | -70.77374 | 32761 ft | 504 kts | 69° |
| 2026-05-06 02:13 | 41.12008 | -70.72976 | 32983 ft | 504 kts | 69° |
| 2026-05-06 02:13 | 41.13045 | -70.68546 | 33032 ft | 508 kts | 70° |
| 2026-05-06 02:14 | 41.15146 | -70.59542 | 33030 ft | 511 kts | 70° |
| 2026-05-06 02:14 | 41.17231 | -70.50546 | 33028 ft | 509 kts | 70° |
| 2026-05-06 02:15 | 41.19294 | -70.41618 | 33030 ft | 509 kts | 70° |
| 2026-05-06 02:15 | 41.21362 | -70.32631 | 33030 ft | 510 kts | 70° |
| 2026-05-06 02:16 | 41.23423 | -70.23641 | 33041 ft | 510 kts | 70° |
| 2026-05-06 02:16 | 41.25491 | -70.14592 | 33047 ft | 511 kts | 71° |
| 2026-05-06 02:17 | 41.27663 | -70.05685 | 33045 ft | 509 kts | 64° |
| 2026-05-06 02:17 | 41.31379 | -69.97734 | 33052 ft | 502 kts | 48° |
| 2026-05-06 02:18 | 41.35860 | -69.90687 | 33039 ft | 503 kts | 46° |
| 2026-05-06 02:18 | 41.40458 | -69.83663 | 33032 ft | 503 kts | 46° |
| 2026-05-06 02:19 | 41.45045 | -69.76603 | 33030 ft | 504 kts | 47° |
| 2026-05-06 02:19 | 41.49614 | -69.69507 | 33032 ft | 504 kts | 47° |
| 2026-05-06 02:20 | 41.56427 | -69.58868 | 33028 ft | 504 kts | 47° |
| 2026-05-06 02:21 | 41.60983 | -69.51737 | 33028 ft | 504 kts | 47° |
| 2026-05-06 02:21 | 41.65500 | -69.44649 | 33032 ft | 504 kts | 47° |
| 2026-05-06 02:22 | 41.70063 | -69.37474 | 33043 ft | 504 kts | 47° |
| 2026-05-06 02:22 | 41.74578 | -69.30354 | 33027 ft | 504 kts | 47° |
| 2026-05-06 02:23 | 41.79112 | -69.23191 | 33041 ft | 504 kts | 47° |
| 2026-05-06 02:23 | 41.83638 | -69.16018 | 33032 ft | 504 kts | 47° |
| 2026-05-06 02:24 | 41.88134 | -69.08878 | 33053 ft | 504 kts | 47° |
| 2026-05-06 02:24 | 41.92658 | -69.01679 | 33039 ft | 504 kts | 47° |
| 2026-05-06 02:25 | 41.97168 | -68.94484 | 33048 ft | 504 kts | 47° |
| 2026-05-06 02:25 | 42.01684 | -68.87262 | 33051 ft | 504 kts | 47° |
| 2026-05-06 02:26 | 42.06181 | -68.80049 | 33045 ft | 505 kts | 47° |
| 2026-05-06 02:26 | 42.10665 | -68.72845 | 33048 ft | 505 kts | 47° |
| 2026-05-06 02:27 | 42.15178 | -68.65577 | 33046 ft | 506 kts | 47° |
| 2026-05-06 02:27 | 42.19693 | -68.58283 | 33045 ft | 506 kts | 47° |
| 2026-05-06 02:28 | 42.24207 | -68.50978 | 33046 ft | 507 kts | 47° |
| 2026-05-06 02:28 | 42.28690 | -68.43702 | 33044 ft | 507 kts | 47° |
| 2026-05-06 02:29 | 42.33193 | -68.36375 | 33047 ft | 508 kts | 47° |
| 2026-05-06 02:29 | 42.37707 | -68.29012 | 33047 ft | 509 kts | 47° |
| 2026-05-06 02:30 | 42.42232 | -68.21618 | 33043 ft | 510 kts | 48° |
| 2026-05-06 02:30 | 42.46710 | -68.14277 | 33040 ft | 510 kts | 48° |
| 2026-05-06 02:31 | 42.51226 | -68.06853 | 33041 ft | 511 kts | 48° |
| 2026-05-06 02:31 | 42.55750 | -67.99402 | 33038 ft | 511 kts | 48° |
| 2026-05-06 02:32 | 42.60266 | -67.91948 | 33036 ft | 512 kts | 48° |
| 2026-05-06 02:32 | 42.64752 | -67.84522 | 33036 ft | 512 kts | 48° |
| 2026-05-06 02:33 | 42.69265 | -67.77032 | 33039 ft | 513 kts | 48° |
| 2026-05-06 02:33 | 42.70788 | -67.74498 | 33042 ft | 513 kts | 48° |
| 2026-05-06 02:34 | 42.78282 | -67.62006 | 33039 ft | 513 kts | 49° |
| 2026-05-06 02:34 | 42.82671 | -67.54664 | 33033 ft | 514 kts | 49° |
| 2026-05-06 02:35 | 42.87180 | -67.47103 | 33035 ft | 514 kts | 49° |
| 2026-05-06 02:35 | 42.91683 | -67.39535 | 33036 ft | 514 kts | 49° |
| 2026-05-06 02:36 | 42.96183 | -67.31952 | 33036 ft | 515 kts | 49° |
| 2026-05-06 02:36 | 43.00673 | -67.24366 | 33033 ft | 515 kts | 49° |
| 2026-05-06 02:37 | 43.05165 | -67.16756 | 33042 ft | 516 kts | 49° |
| 2026-05-06 02:37 | 43.09673 | -67.09101 | 33036 ft | 516 kts | 49° |
| 2026-05-06 02:38 | 43.14167 | -67.01449 | 33040 ft | 516 kts | 49° |
| 2026-05-06 02:38 | 43.18751 | -66.93843 | 33030 ft | 516 kts | 47° |
| 2026-05-06 02:39 | 43.23451 | -66.86500 | 33031 ft | 517 kts | 46° |
| 2026-05-06 02:39 | 43.28185 | -66.79087 | 33026 ft | 517 kts | 47° |
| 2026-05-06 02:40 | 43.32888 | -66.71619 | 33027 ft | 518 kts | 47° |
| 2026-05-06 02:40 | 43.35240 | -66.67865 | 33023 ft | 518 kts | 47° |
| 2026-05-06 02:41 | 43.39068 | -66.61733 | 33024 ft | 518 kts | 47° |
| 2026-05-06 02:41 | 43.43782 | -66.54169 | 33018 ft | 519 kts | 47° |
| 2026-05-06 02:42 | 43.48504 | -66.46577 | 33020 ft | 525 kts | 48° |
| 2026-05-06 02:42 | 43.53266 | -66.38901 | 33012 ft | 531 kts | 48° |
| 2026-05-06 02:43 | 43.58088 | -66.31105 | 33017 ft | 534 kts | 48° |
| 2026-05-06 02:43 | 43.62877 | -66.23342 | 33020 ft | 535 kts | 48° |
| 2026-05-06 02:44 | 43.67684 | -66.15527 | 33022 ft | 535 kts | 48° |
| 2026-05-06 02:44 | 43.72509 | -66.07663 | 33025 ft | 535 kts | 49° |
| 2026-05-06 02:45 | 43.77313 | -65.99810 | 33026 ft | 535 kts | 49° |
| 2026-05-06 02:45 | 43.82076 | -65.92006 | 33025 ft | 534 kts | 49° |
| 2026-05-06 02:46 | 43.86860 | -65.84145 | 33030 ft | 533 kts | 49° |
| 2026-05-06 02:46 | 43.91616 | -65.76311 | 33031 ft | 532 kts | 49° |
| 2026-05-06 02:47 | 43.96377 | -65.68444 | 33035 ft | 532 kts | 49° |
| 2026-05-06 02:47 | 44.01125 | -65.60579 | 33035 ft | 532 kts | 49° |
| 2026-05-06 02:48 | 44.05828 | -65.52767 | 33034 ft | 532 kts | 50° |
| 2026-05-06 02:48 | 44.10588 | -65.44837 | 33035 ft | 532 kts | 50° |
| 2026-05-06 02:49 | 44.15324 | -65.36926 | 33031 ft | 532 kts | 50° |
| 2026-05-06 02:49 | 44.20039 | -65.29029 | 33029 ft | 533 kts | 50° |
| 2026-05-06 02:50 | 44.24755 | -65.21109 | 33034 ft | 533 kts | 50° |
| 2026-05-06 02:50 | 44.29503 | -65.13112 | 33031 ft | 533 kts | 50° |
| 2026-05-06 02:51 | 44.34218 | -65.05150 | 33029 ft | 534 kts | 50° |
| 2026-05-06 02:51 | 44.38961 | -64.97117 | 33024 ft | 534 kts | 50° |
| 2026-05-06 02:52 | 44.43650 | -64.89152 | 33017 ft | 535 kts | 50° |
| 2026-05-06 02:52 | 44.48363 | -64.81126 | 33010 ft | 535 kts | 50° |
| 2026-05-06 02:53 | 44.53092 | -64.73050 | 33010 ft | 535 kts | 50° |
| 2026-05-06 02:53 | 44.57821 | -64.64950 | 33013 ft | 536 kts | 50° |
| 2026-05-06 02:54 | 44.62508 | -64.56898 | 33006 ft | 536 kts | 50° |
| 2026-05-06 02:54 | 44.67248 | -64.48733 | 33000 ft | 536 kts | 51° |
| 2026-05-06 02:55 | 44.71924 | -64.40657 | 32998 ft | 537 kts | 51° |
| 2026-05-06 02:55 | 44.76637 | -64.32492 | 32991 ft | 537 kts | 51° |
| 2026-05-06 02:56 | 44.81340 | -64.24322 | 32990 ft | 537 kts | 51° |
| 2026-05-06 02:56 | 44.86010 | -64.16186 | 33000 ft | 537 kts | 51° |
| 2026-05-06 02:57 | 44.90695 | -64.07998 | 32994 ft | 538 kts | 51° |
| 2026-05-06 02:57 | 44.95394 | -63.99764 | 33000 ft | 537 kts | 51° |
| 2026-05-06 02:58 | 45.00078 | -63.91533 | 33006 ft | 537 kts | 51° |
| 2026-05-06 02:58 | 45.04745 | -63.83306 | 33014 ft | 537 kts | 51° |
| 2026-05-06 02:59 | 45.09412 | -63.75056 | 33017 ft | 537 kts | 51° |
| 2026-05-06 02:59 | 45.14029 | -63.66872 | 33015 ft | 536 kts | 51° |
| 2026-05-06 03:00 | 45.18678 | -63.58606 | 33011 ft | 536 kts | 51° |
| 2026-05-06 03:00 | 45.23322 | -63.50325 | 33003 ft | 536 kts | 51° |
| 2026-05-06 03:01 | 45.27929 | -63.42086 | 33002 ft | 535 kts | 51° |
| 2026-05-06 03:01 | 45.32540 | -63.33815 | 33000 ft | 535 kts | 51° |
| 2026-05-06 03:02 | 45.37155 | -63.25514 | 32992 ft | 534 kts | 51° |
| 2026-05-06 03:02 | 45.41759 | -63.17208 | 32987 ft | 535 kts | 52° |
| 2026-05-06 03:03 | 45.46354 | -63.08893 | 32981 ft | 536 kts | 52° |
| 2026-05-06 03:03 | 45.50966 | -63.00524 | 32975 ft | 537 kts | 52° |
| 2026-05-06 03:04 | 45.55558 | -62.92166 | 32969 ft | 539 kts | 52° |
| 2026-05-06 03:04 | 45.60179 | -62.83728 | 32962 ft | 541 kts | 52° |
| 2026-05-06 03:05 | 45.64809 | -62.75251 | 32953 ft | 541 kts | 52° |
| 2026-05-06 03:05 | 45.69434 | -62.66756 | 32953 ft | 542 kts | 52° |
| 2026-05-06 03:06 | 45.74042 | -62.58267 | 32948 ft | 543 kts | 52° |
| 2026-05-06 03:06 | 45.78661 | -62.49733 | 32947 ft | 543 kts | 52° |
| 2026-05-06 03:07 | 45.83276 | -62.41179 | 32955 ft | 543 kts | 52° |
| 2026-05-06 03:07 | 45.87887 | -62.32607 | 32958 ft | 542 kts | 52° |
| 2026-05-06 03:08 | 45.92464 | -62.24073 | 32967 ft | 542 kts | 52° |
| 2026-05-06 03:08 | 45.97059 | -62.15479 | 32975 ft | 542 kts | 52° |
| 2026-05-06 03:09 | 46.01646 | -62.06873 | 32984 ft | 543 kts | 52° |
| 2026-05-06 03:09 | 46.06246 | -61.98218 | 32986 ft | 543 kts | 52° |
| 2026-05-06 03:10 | 46.10790 | -61.89639 | 32981 ft | 543 kts | 52° |
| 2026-05-06 03:10 | 46.15293 | -61.81115 | 32978 ft | 543 kts | 52° |
| 2026-05-06 03:11 | 46.19073 | -61.73937 | 32975 ft | 543 kts | 52° |
| 2026-05-06 03:11 | 46.24391 | -61.63808 | 32962 ft | 544 kts | 52° |
| 2026-05-06 03:12 | 46.28190 | -61.56549 | 32961 ft | 544 kts | 52° |
| 2026-05-06 03:12 | 46.33498 | -61.46377 | 32954 ft | 544 kts | 52° |
| 2026-05-06 03:13 | 46.37307 | -61.39055 | 32948 ft | 544 kts | 52° |
| 2026-05-06 03:13 | 46.41822 | -61.30349 | 32943 ft | 544 kts | 52° |
| 2026-05-06 03:14 | 46.46338 | -61.21615 | 32941 ft | 543 kts | 52° |
| 2026-05-06 03:14 | 46.50885 | -61.12794 | 32938 ft | 543 kts | 52° |
| 2026-05-06 03:15 | 46.56124 | -61.02595 | 32937 ft | 543 kts | 52° |
| 2026-05-06 03:15 | 46.59881 | -60.95257 | 32940 ft | 543 kts | 52° |
| 2026-05-06 03:16 | 46.64382 | -60.86442 | 32950 ft | 543 kts | 52° |
| 2026-05-06 03:16 | 46.68883 | -60.77599 | 32951 ft | 544 kts | 52° |
| 2026-05-06 03:17 | 46.73347 | -60.68798 | 32959 ft | 544 kts | 52° |
| 2026-05-06 03:17 | 46.77871 | -60.59854 | 32941 ft | 544 kts | 52° |
| 2026-05-06 03:18 | 46.82322 | -60.51023 | 32956 ft | 544 kts | 52° |
| 2026-05-06 03:18 | 46.86798 | -60.42117 | 32962 ft | 545 kts | 52° |
| 2026-05-06 03:19 | 46.91275 | -60.33178 | 32967 ft | 546 kts | 52° |
| 2026-05-06 03:19 | 46.95761 | -60.24192 | 32971 ft | 546 kts | 52° |
| 2026-05-06 03:20 | 47.02451 | -60.10740 | 32969 ft | 547 kts | 52° |
| 2026-05-06 03:20 | 47.06921 | -60.01713 | 32976 ft | 547 kts | 52° |
| 2026-05-06 03:21 | 47.11387 | -59.92665 | 32972 ft | 547 kts | 52° |
| 2026-05-06 03:21 | 47.15850 | -59.83594 | 32974 ft | 547 kts | 52° |
| 2026-05-06 03:22 | 47.20288 | -59.74544 | 32978 ft | 547 kts | 52° |
| 2026-05-06 03:22 | 47.24715 | -59.65488 | 32976 ft | 548 kts | 52° |
| 2026-05-06 03:23 | 47.29158 | -59.56367 | 32984 ft | 548 kts | 52° |
| 2026-05-06 03:23 | 47.33597 | -59.47226 | 32982 ft | 548 kts | 52° |
| 2026-05-06 03:24 | 47.37990 | -59.38147 | 32993 ft | 548 kts | 52° |
| 2026-05-06 03:24 | 47.42413 | -59.28978 | 33006 ft | 548 kts | 52° |
| 2026-05-06 03:25 | 47.46819 | -59.19814 | 33013 ft | 547 kts | 52° |
| 2026-05-06 03:25 | 47.51222 | -59.10624 | 33027 ft | 547 kts | 52° |
| 2026-05-06 03:26 | 47.55582 | -59.01493 | 33028 ft | 546 kts | 52° |
| 2026-05-06 03:26 | 47.59978 | -58.92259 | 33044 ft | 546 kts | 52° |
| 2026-05-06 03:27 | 47.64314 | -58.83118 | 33049 ft | 546 kts | 52° |
| 2026-05-06 03:27 | 47.68681 | -58.73880 | 33051 ft | 545 kts | 52° |
| 2026-05-06 03:28 | 47.73026 | -58.64659 | 33056 ft | 545 kts | 52° |
| 2026-05-06 03:28 | 47.77374 | -58.55401 | 33059 ft | 545 kts | 52° |
| 2026-05-06 03:29 | 47.81669 | -58.46225 | 33062 ft | 546 kts | 52° |
| 2026-05-06 03:29 | 47.86015 | -58.36909 | 33066 ft | 547 kts | 52° |
| 2026-05-06 03:30 | 47.90339 | -58.27607 | 33060 ft | 547 kts | 52° |
| 2026-05-06 03:30 | 47.94665 | -58.18270 | 33066 ft | 547 kts | 52° |
| 2026-05-06 03:31 | 47.98986 | -58.08908 | 33059 ft | 548 kts | 52° |
| 2026-05-06 03:31 | 48.03293 | -57.99546 | 33053 ft | 548 kts | 52° |
| 2026-05-06 03:32 | 48.07576 | -57.90207 | 33053 ft | 548 kts | 52° |
| 2026-05-06 03:32 | 48.11875 | -57.80798 | 33052 ft | 548 kts | 52° |
| 2026-05-06 03:33 | 48.16177 | -57.71351 | 33047 ft | 548 kts | 52° |
| 2026-05-06 03:33 | 48.20457 | -57.61918 | 33039 ft | 548 kts | 52° |
| 2026-05-06 03:34 | 48.24712 | -57.52511 | 33039 ft | 548 kts | 52° |
| 2026-05-06 03:34 | 48.28982 | -57.43034 | 33037 ft | 548 kts | 52° |
| 2026-05-06 03:35 | 48.33244 | -57.33544 | 33035 ft | 548 kts | 52° |
| 2026-05-06 03:35 | 48.37492 | -57.24052 | 33031 ft | 548 kts | 52° |
| 2026-05-06 03:36 | 48.41723 | -57.14566 | 33019 ft | 549 kts | 53° |
| 2026-05-06 03:36 | 48.45974 | -57.04999 | 33023 ft | 549 kts | 53° |
| 2026-05-06 03:37 | 48.50209 | -56.95435 | 32992 ft | 550 kts | 53° |
| 2026-05-06 03:37 | 48.54454 | -56.85815 | 32995 ft | 551 kts | 53° |
| 2026-05-06 03:38 | 48.58670 | -56.76225 | 32993 ft | 551 kts | 53° |
| 2026-05-06 03:38 | 48.62903 | -56.66561 | 32989 ft | 551 kts | 53° |
| 2026-05-06 03:39 | 48.67119 | -56.56903 | 32992 ft | 550 kts | 53° |
| 2026-05-06 03:39 | 48.71326 | -56.47232 | 32992 ft | 551 kts | 53° |
| 2026-05-06 03:40 | 48.75527 | -56.37539 | 32995 ft | 550 kts | 53° |
| 2026-05-06 03:40 | 48.79691 | -56.27895 | 32999 ft | 550 kts | 53° |
| 2026-05-06 03:41 | 48.83870 | -56.18184 | 33002 ft | 550 kts | 53° |
| 2026-05-06 03:41 | 48.88049 | -56.08437 | 33002 ft | 550 kts | 53° |
| 2026-05-06 03:42 | 48.92214 | -55.98689 | 33005 ft | 550 kts | 53° |
| 2026-05-06 03:42 | 48.96339 | -55.88998 | 33004 ft | 551 kts | 53° |
| 2026-05-06 03:43 | 49.00478 | -55.79237 | 33006 ft | 551 kts | 53° |
| 2026-05-06 03:43 | 49.04641 | -55.69383 | 33004 ft | 551 kts | 53° |
| 2026-05-06 03:44 | 49.08797 | -55.59511 | 33002 ft | 552 kts | 53° |
| 2026-05-06 03:44 | 49.12904 | -55.49720 | 33002 ft | 552 kts | 53° |
| 2026-05-06 03:45 | 49.17027 | -55.39854 | 32999 ft | 552 kts | 53° |
| 2026-05-06 03:45 | 49.21154 | -55.29941 | 32993 ft | 552 kts | 53° |
| 2026-05-06 03:46 | 49.25271 | -55.20014 | 32989 ft | 552 kts | 53° |
| 2026-05-06 03:46 | 49.29348 | -55.10149 | 32985 ft | 552 kts | 53° |
| 2026-05-06 03:47 | 49.33435 | -55.00221 | 32982 ft | 552 kts | 53° |
| 2026-05-06 03:47 | 49.37540 | -54.90213 | 32980 ft | 552 kts | 53° |
| 2026-05-06 03:48 | 49.41624 | -54.80218 | 32979 ft | 552 kts | 53° |
| 2026-05-06 03:48 | 49.45668 | -54.70284 | 32979 ft | 552 kts | 53° |
| 2026-05-06 03:49 | 49.49734 | -54.60258 | 32978 ft | 552 kts | 53° |
| 2026-05-06 03:49 | 49.53789 | -54.50220 | 32982 ft | 552 kts | 53° |
| 2026-05-06 03:50 | 49.57830 | -54.40178 | 32983 ft | 551 kts | 53° |
| 2026-05-06 03:50 | 49.61829 | -54.30204 | 32978 ft | 550 kts | 53° |
| 2026-05-06 03:51 | 49.65844 | -54.20152 | 32984 ft | 549 kts | 53° |
| 2026-05-06 03:51 | 49.69831 | -54.10131 | 32981 ft | 548 kts | 53° |
| 2026-05-06 03:52 | 49.73819 | -54.00072 | 32981 ft | 548 kts | 53° |
| 2026-05-06 03:52 | 49.77790 | -53.90017 | 32991 ft | 547 kts | 53° |
| 2026-05-06 03:53 | 49.81723 | -53.80018 | 32981 ft | 547 kts | 53° |
| 2026-05-06 03:53 | 49.85659 | -53.69973 | 32985 ft | 546 kts | 53° |
| 2026-05-06 03:54 | 49.89603 | -53.59870 | 32987 ft | 546 kts | 53° |
| 2026-05-06 03:54 | 49.93514 | -53.49813 | 32995 ft | 546 kts | 53° |
| 2026-05-06 03:55 | 49.97402 | -53.39776 | 32994 ft | 545 kts | 53° |
| 2026-05-06 03:55 | 50.01306 | -53.29660 | 33000 ft | 545 kts | 53° |
| 2026-05-06 03:56 | 50.05189 | -53.19558 | 32997 ft | 545 kts | 53° |
| 2026-05-06 03:56 | 50.09072 | -53.09417 | 32999 ft | 545 kts | 53° |
| 2026-05-06 03:57 | 50.12917 | -52.99336 | 33003 ft | 544 kts | 53° |
| 2026-05-06 03:57 | 50.16794 | -52.89133 | 33005 ft | 544 kts | 53° |
| 2026-05-06 03:58 | 50.20626 | -52.79010 | 33008 ft | 544 kts | 53° |
| 2026-05-06 03:58 | 50.24459 | -52.68841 | 33008 ft | 543 kts | 53° |
| 2026-05-06 03:59 | 50.28282 | -52.58658 | 33013 ft | 543 kts | 53° |
| 2026-05-06 03:59 | 50.32061 | -52.48553 | 33009 ft | 542 kts | 53° |
| 2026-05-06 04:00 | 50.35861 | -52.38353 | 33009 ft | 542 kts | 53° |
| 2026-05-06 04:00 | 50.39634 | -52.28184 | 33012 ft | 541 kts | 53° |
| 2026-05-06 04:01 | 50.43419 | -52.17944 | 33017 ft | 541 kts | 54° |
| 2026-05-06 04:01 | 50.47160 | -52.07783 | 33017 ft | 541 kts | 54° |
| 2026-05-06 04:02 | 50.50676 | -51.97344 | 33025 ft | 546 kts | 61° |
| 2026-05-06 04:02 | 50.53625 | -51.86297 | 33020 ft | 547 kts | 62° |
| 2026-05-06 04:03 | 50.56477 | -51.75216 | 33026 ft | 547 kts | 62° |
| 2026-05-06 04:03 | 50.59322 | -51.64111 | 33035 ft | 547 kts | 62° |
| 2026-05-06 04:04 | 50.62152 | -51.53069 | 33018 ft | 546 kts | 62° |
| 2026-05-06 04:04 | 50.64975 | -51.42004 | 33029 ft | 547 kts | 63° |
| 2026-05-06 04:05 | 50.67812 | -51.30843 | 33033 ft | 546 kts | 63° |
| 2026-05-06 04:05 | 50.70624 | -51.19721 | 33033 ft | 546 kts | 63° |
| 2026-05-06 04:06 | 50.73405 | -51.08668 | 33032 ft | 546 kts | 63° |
| 2026-05-06 04:06 | 50.76209 | -50.97466 | 33037 ft | 546 kts | 63° |
| 2026-05-06 04:07 | 50.78970 | -50.86380 | 33033 ft | 546 kts | 63° |
| 2026-05-06 04:07 | 50.81735 | -50.75219 | 33036 ft | 545 kts | 63° |
| 2026-05-06 04:08 | 50.84480 | -50.64091 | 33037 ft | 545 kts | 63° |
| 2026-05-06 04:08 | 50.87223 | -50.52905 | 33037 ft | 546 kts | 64° |
| 2026-05-06 04:09 | 50.89962 | -50.41688 | 33041 ft | 546 kts | 64° |
| 2026-05-06 04:09 | 50.92686 | -50.30469 | 33042 ft | 546 kts | 64° |
| 2026-05-06 04:10 | 50.95407 | -50.19208 | 33036 ft | 547 kts | 64° |
| 2026-05-06 04:10 | 50.98099 | -50.08006 | 33041 ft | 547 kts | 64° |
| 2026-05-06 04:11 | 51.00800 | -49.96737 | 33041 ft | 547 kts | 64° |
| 2026-05-06 04:11 | 51.03617 | -49.85495 | 33047 ft | 547 kts | 63° |
| 2026-05-06 04:12 | 51.06468 | -49.74276 | 33044 ft | 548 kts | 63° |
| 2026-05-06 04:12 | 51.09292 | -49.63022 | 33046 ft | 549 kts | 64° |
| 2026-05-06 04:13 | 51.12075 | -49.51818 | 33048 ft | 550 kts | 64° |
| 2026-05-06 04:13 | 51.14880 | -49.40448 | 33050 ft | 550 kts | 64° |
| 2026-05-06 04:14 | 51.17669 | -49.29091 | 33046 ft | 551 kts | 64° |
| 2026-05-06 04:14 | 51.20439 | -49.17753 | 33045 ft | 552 kts | 64° |
| 2026-05-06 04:15 | 51.23216 | -49.06334 | 33042 ft | 553 kts | 65° |
| 2026-05-06 04:15 | 51.25978 | -48.94908 | 33049 ft | 552 kts | 65° |
| 2026-05-06 04:16 | 51.28737 | -48.83437 | 33048 ft | 552 kts | 65° |
| 2026-05-06 04:16 | 51.31472 | -48.72005 | 33052 ft | 551 kts | 65° |
| 2026-05-06 04:17 | 51.34182 | -48.60625 | 33052 ft | 550 kts | 65° |
| 2026-05-06 04:17 | 51.36890 | -48.49187 | 33052 ft | 550 kts | 65° |
| 2026-05-06 04:18 | 51.39587 | -48.37740 | 33049 ft | 549 kts | 65° |
| 2026-05-06 04:18 | 51.42246 | -48.26392 | 33049 ft | 549 kts | 65° |
| 2026-05-06 04:19 | 51.44939 | -48.14840 | 33051 ft | 549 kts | 65° |
| 2026-05-06 04:19 | 51.47583 | -48.03435 | 33051 ft | 549 kts | 66° |
| 2026-05-06 04:20 | 51.50233 | -47.91946 | 33052 ft | 548 kts | 66° |
| 2026-05-06 04:20 | 51.51544 | -47.86231 | 32923 ft | 548 kts | 63° |
| 2026-05-06 04:20 | 51.52854 | -47.80468 | 33042 ft | 548 kts | 63° |
| 2026-05-06 04:21 | 51.55466 | -47.69031 | 33053 ft | 550 kts | 63° |
| 2026-05-06 04:21 | 51.58088 | -47.57493 | 33056 ft | 550 kts | 63° |
| 2026-05-06 04:22 | 51.60694 | -47.45951 | 33061 ft | 549 kts | 63° |
| 2026-05-06 04:23 | 51.64575 | -47.28625 | 33057 ft | 549 kts | 64° |
| 2026-05-06 04:23 | 51.67150 | -47.17051 | 33057 ft | 548 kts | 64° |
| 2026-05-06 04:24 | 51.69711 | -47.05476 | 33054 ft | 548 kts | 64° |
| 2026-05-06 04:24 | 51.72256 | -46.93911 | 33055 ft | 548 kts | 64° |
| 2026-05-06 04:25 | 51.74775 | -46.82393 | 33053 ft | 547 kts | 64° |
| 2026-05-06 04:25 | 51.77297 | -46.70806 | 33046 ft | 547 kts | 65° |
| 2026-05-06 04:26 | 51.79798 | -46.59253 | 33055 ft | 547 kts | 65° |
| 2026-05-06 04:26 | 51.82295 | -46.47655 | 33051 ft | 547 kts | 65° |
| 2026-05-06 04:27 | 51.84780 | -46.36044 | 33056 ft | 547 kts | 65° |
| 2026-05-06 04:27 | 51.87252 | -46.24422 | 33053 ft | 547 kts | 66° |
| 2026-05-06 04:28 | 51.89716 | -46.12769 | 33055 ft | 547 kts | 66° |
| 2026-05-06 04:28 | 51.92151 | -46.01185 | 33054 ft | 546 kts | 66° |
| 2026-05-06 04:29 | 51.94586 | -45.89536 | 33052 ft | 546 kts | 66° |
| 2026-05-06 04:29 | 51.97011 | -45.77869 | 33056 ft | 546 kts | 67° |
| 2026-05-06 04:30 | 51.99419 | -45.66219 | 33057 ft | 546 kts | 67° |
| 2026-05-06 04:30 | 52.01825 | -45.54506 | 33052 ft | 546 kts | 68° |
| 2026-05-06 04:31 | 52.04198 | -45.42890 | 33051 ft | 546 kts | 68° |
| 2026-05-06 04:31 | 52.06579 | -45.31162 | 33054 ft | 546 kts | 68° |
| 2026-05-06 04:32 | 52.08946 | -45.19435 | 33059 ft | 546 kts | 68° |
| 2026-05-06 04:32 | 52.11294 | -45.07733 | 33054 ft | 545 kts | 68° |
| 2026-05-06 04:33 | 52.13623 | -44.96053 | 33054 ft | 545 kts | 69° |
| 2026-05-06 04:33 | 52.15971 | -44.84209 | 33056 ft | 545 kts | 69° |
| 2026-05-06 04:34 | 52.18269 | -44.72546 | 33058 ft | 545 kts | 69° |
| 2026-05-06 04:34 | 52.20573 | -44.60778 | 33058 ft | 545 kts | 69° |
| 2026-05-06 04:35 | 52.22863 | -44.49015 | 33066 ft | 545 kts | 69° |
| 2026-05-06 04:35 | 52.25129 | -44.37299 | 33056 ft | 545 kts | 70° |
| 2026-05-06 04:36 | 52.27393 | -44.25525 | 33056 ft | 544 kts | 70° |
| 2026-05-06 04:36 | 52.29653 | -44.13697 | 33064 ft | 544 kts | 70° |
| 2026-05-06 04:37 | 52.31895 | -44.01886 | 33070 ft | 544 kts | 70° |
| 2026-05-06 04:37 | 52.34108 | -43.90158 | 33066 ft | 543 kts | 70° |
| 2026-05-06 04:38 | 52.36331 | -43.78298 | 33068 ft | 543 kts | 71° |
| 2026-05-06 04:38 | 52.38522 | -43.66543 | 33072 ft | 543 kts | 71° |
| 2026-05-06 04:39 | 52.40707 | -43.54737 | 33071 ft | 542 kts | 71° |
| 2026-05-06 04:39 | 52.42870 | -43.42980 | 33074 ft | 542 kts | 71° |
| 2026-05-06 04:40 | 52.45027 | -43.31179 | 33075 ft | 541 kts | 71° |
| 2026-05-06 04:40 | 52.47181 | -43.19320 | 33078 ft | 541 kts | 72° |
| 2026-05-06 04:41 | 52.49313 | -43.07503 | 33082 ft | 540 kts | 72° |
| 2026-05-06 04:41 | 52.51435 | -42.95665 | 33084 ft | 540 kts | 72° |
| 2026-05-06 04:42 | 52.53538 | -42.83858 | 33083 ft | 540 kts | 72° |
| 2026-05-06 04:42 | 52.55622 | -42.72080 | 33083 ft | 540 kts | 72° |
| 2026-05-06 04:43 | 52.57705 | -42.60226 | 33089 ft | 540 kts | 72° |
| 2026-05-06 04:43 | 52.59773 | -42.48382 | 33096 ft | 539 kts | 73° |
| 2026-05-06 04:44 | 52.61830 | -42.36524 | 33091 ft | 539 kts | 73° |
| 2026-05-06 04:44 | 52.63873 | -42.24668 | 33094 ft | 538 kts | 73° |
| 2026-05-06 04:45 | 52.65892 | -42.12871 | 33096 ft | 538 kts | 73° |
| 2026-05-06 04:45 | 52.67897 | -42.01072 | 33097 ft | 538 kts | 73° |
| 2026-05-06 04:46 | 52.69910 | -41.89149 | 33102 ft | 537 kts | 74° |
| 2026-05-06 04:46 | 52.71892 | -41.77330 | 33099 ft | 537 kts | 74° |
| 2026-05-06 04:47 | 52.73877 | -41.65412 | 33099 ft | 536 kts | 74° |
| 2026-05-06 04:47 | 52.75830 | -41.53599 | 33104 ft | 536 kts | 74° |
| 2026-05-06 04:48 | 52.77784 | -41.41703 | 33103 ft | 536 kts | 75° |
| 2026-05-06 04:48 | 52.79721 | -41.29826 | 33105 ft | 535 kts | 75° |
| 2026-05-06 04:49 | 52.81629 | -41.18044 | 33104 ft | 535 kts | 75° |
| 2026-05-06 04:49 | 52.83534 | -41.06199 | 33102 ft | 534 kts | 75° |
| 2026-05-06 04:50 | 52.85434 | -40.94301 | 33102 ft | 534 kts | 75° |
| 2026-05-06 04:50 | 52.87316 | -40.82424 | 33107 ft | 533 kts | 76° |
| 2026-05-06 04:51 | 52.89181 | -40.70573 | 33104 ft | 533 kts | 76° |
| 2026-05-06 04:51 | 52.91037 | -40.58701 | 33107 ft | 532 kts | 76° |
| 2026-05-06 04:52 | 52.92867 | -40.46901 | 33110 ft | 532 kts | 76° |
| 2026-05-06 04:52 | 52.94699 | -40.35012 | 33110 ft | 532 kts | 76° |
| 2026-05-06 04:53 | 52.96505 | -40.23194 | 33114 ft | 531 kts | 76° |
| 2026-05-06 04:53 | 52.98315 | -40.11272 | 33112 ft | 531 kts | 76° |
| 2026-05-06 04:54 | 53.00095 | -39.99457 | 33116 ft | 530 kts | 76° |
| 2026-05-06 04:54 | 53.01840 | -39.87546 | 33116 ft | 530 kts | 77° |
| 2026-05-06 04:55 | 53.03529 | -39.75635 | 33117 ft | 530 kts | 77° |
| 2026-05-06 04:55 | 53.05202 | -39.63782 | 33120 ft | 529 kts | 77° |
| 2026-05-06 04:56 | 53.06876 | -39.51893 | 33120 ft | 529 kts | 77° |
| 2026-05-06 04:56 | 53.08541 | -39.39998 | 33122 ft | 528 kts | 77° |
| 2026-05-06 04:57 | 53.10196 | -39.28078 | 33124 ft | 528 kts | 78° |
| 2026-05-06 04:57 | 53.11826 | -39.16241 | 33128 ft | 528 kts | 78° |
| 2026-05-06 04:58 | 53.13449 | -39.04366 | 33128 ft | 527 kts | 78° |
| 2026-05-06 04:58 | 53.15062 | -38.92463 | 33134 ft | 527 kts | 78° |
| 2026-05-06 04:59 | 53.16661 | -38.80561 | 33131 ft | 526 kts | 78° |
| 2026-05-06 04:59 | 53.18250 | -38.68648 | 33135 ft | 526 kts | 78° |
| 2026-05-06 05:00 | 53.19815 | -38.56814 | 33136 ft | 526 kts | 78° |
| 2026-05-06 05:00 | 53.21376 | -38.44905 | 33137 ft | 526 kts | 79° |
| 2026-05-06 05:01 | 53.22925 | -38.32999 | 33138 ft | 525 kts | 79° |
| 2026-05-06 05:01 | 53.24455 | -38.21136 | 33136 ft | 525 kts | 79° |
| 2026-05-06 05:02 | 53.25977 | -38.09238 | 33135 ft | 525 kts | 79° |
| 2026-05-06 05:02 | 53.27487 | -37.97330 | 33150 ft | 524 kts | 79° |
| 2026-05-06 05:03 | 53.28983 | -37.85427 | 33138 ft | 524 kts | 79° |
| 2026-05-06 05:03 | 53.30469 | -37.73507 | 33142 ft | 523 kts | 80° |
| 2026-05-06 05:04 | 53.31932 | -37.61660 | 33149 ft | 523 kts | 80° |
| 2026-05-06 05:04 | 53.33392 | -37.49743 | 33138 ft | 522 kts | 80° |
| 2026-05-06 05:05 | 53.34836 | -37.37849 | 33155 ft | 521 kts | 80° |
| 2026-05-06 05:05 | 53.36263 | -37.25985 | 33135 ft | 521 kts | 80° |
| 2026-05-06 05:06 | 53.37682 | -37.14080 | 33148 ft | 520 kts | 81° |
| 2026-05-06 05:06 | 53.39085 | -37.02211 | 33150 ft | 520 kts | 81° |
| 2026-05-06 05:07 | 53.40468 | -36.90397 | 33129 ft | 519 kts | 81° |
| 2026-05-06 05:07 | 53.41841 | -36.78564 | 33143 ft | 518 kts | 81° |
| 2026-05-06 05:08 | 53.43203 | -36.66717 | 33142 ft | 518 kts | 81° |
| 2026-05-06 05:08 | 53.44556 | -36.54832 | 33141 ft | 518 kts | 81° |
| 2026-05-06 05:09 | 53.45896 | -36.42958 | 33146 ft | 517 kts | 81° |
| 2026-05-06 05:09 | 53.47213 | -36.31173 | 33145 ft | 517 kts | 81° |
| 2026-05-06 05:10 | 53.48527 | -36.19308 | 33144 ft | 517 kts | 82° |
| 2026-05-06 05:10 | 53.49829 | -36.07431 | 33139 ft | 517 kts | 82° |
| 2026-05-06 05:11 | 53.51110 | -35.95635 | 33139 ft | 517 kts | 82° |
| 2026-05-06 05:11 | 53.52386 | -35.83768 | 33140 ft | 517 kts | 82° |
| 2026-05-06 05:12 | 53.53646 | -35.71941 | 33142 ft | 517 kts | 82° |
| 2026-05-06 05:12 | 53.54905 | -35.60000 | 33129 ft | 517 kts | 82° |
| 2026-05-06 05:13 | 53.56141 | -35.48157 | 33133 ft | 517 kts | 82° |
| 2026-05-06 05:13 | 53.57368 | -35.36286 | 33129 ft | 516 kts | 82° |
| 2026-05-06 05:14 | 53.58589 | -35.24355 | 33133 ft | 516 kts | 82° |
| 2026-05-06 05:14 | 53.59792 | -35.12466 | 33129 ft | 516 kts | 83° |
| 2026-05-06 05:15 | 53.60987 | -35.00537 | 33132 ft | 516 kts | 83° |
| 2026-05-06 05:15 | 53.62163 | -34.88674 | 33119 ft | 516 kts | 83° |
| 2026-05-06 05:16 | 53.63331 | -34.76774 | 33122 ft | 516 kts | 83° |
| 2026-05-06 05:16 | 53.64489 | -34.64838 | 33125 ft | 516 kts | 83° |
| 2026-05-06 05:17 | 53.65630 | -34.52955 | 33121 ft | 516 kts | 83° |
| 2026-05-06 05:17 | 53.66763 | -34.41026 | 33122 ft | 516 kts | 83° |
| 2026-05-06 05:18 | 53.67883 | -34.29102 | 33117 ft | 516 kts | 84° |
| 2026-05-06 05:18 | 53.68995 | -34.17130 | 33115 ft | 516 kts | 84° |
| 2026-05-06 05:19 | 53.70084 | -34.05271 | 33116 ft | 516 kts | 84° |
| 2026-05-06 05:19 | 53.71171 | -33.93292 | 33112 ft | 515 kts | 84° |
| 2026-05-06 05:20 | 53.72245 | -33.81321 | 33114 ft | 515 kts | 84° |
| 2026-05-06 05:20 | 53.73306 | -33.69369 | 33108 ft | 516 kts | 84° |
| 2026-05-06 05:21 | 53.74356 | -33.57388 | 33109 ft | 516 kts | 84° |
| 2026-05-06 05:21 | 53.75396 | -33.45384 | 33108 ft | 515 kts | 84° |
| 2026-05-06 05:22 | 53.76414 | -33.33484 | 33106 ft | 515 kts | 85° |
| 2026-05-06 05:22 | 53.77428 | -33.21497 | 33104 ft | 515 kts | 85° |
| 2026-05-06 05:23 | 53.78430 | -33.09499 | 33105 ft | 515 kts | 85° |
| 2026-05-06 05:23 | 53.79910 | -32.91513 | 33098 ft | 515 kts | 85° |
| 2026-05-06 05:24 | 53.80883 | -32.79495 | 33100 ft | 515 kts | 85° |
| 2026-05-06 05:24 | 53.81835 | -32.67586 | 33098 ft | 515 kts | 85° |
| 2026-05-06 05:25 | 53.82781 | -32.55595 | 33092 ft | 514 kts | 86° |
| 2026-05-06 05:25 | 53.83715 | -32.43588 | 33094 ft | 514 kts | 86° |
| 2026-05-06 05:26 | 53.84633 | -32.31623 | 33088 ft | 514 kts | 86° |
| 2026-05-06 05:26 | 53.85547 | -32.19559 | 33086 ft | 514 kts | 86° |
| 2026-05-06 05:27 | 53.86438 | -32.07631 | 33086 ft | 514 kts | 86° |
| 2026-05-06 05:27 | 53.87325 | -31.95599 | 33081 ft | 514 kts | 86° |
| 2026-05-06 05:28 | 53.88195 | -31.83629 | 33096 ft | 514 kts | 86° |
| 2026-05-06 05:28 | 53.89058 | -31.71587 | 33074 ft | 514 kts | 86° |
| 2026-05-06 05:29 | 53.89906 | -31.59571 | 33086 ft | 514 kts | 86° |
| 2026-05-06 05:29 | 53.90744 | -31.47540 | 33082 ft | 513 kts | 86° |
| 2026-05-06 05:30 | 53.91566 | -31.35542 | 33070 ft | 513 kts | 86° |
| 2026-05-06 05:30 | 53.92375 | -31.23573 | 33076 ft | 513 kts | 86° |
| 2026-05-06 05:31 | 53.93173 | -31.11579 | 33082 ft | 512 kts | 87° |
| 2026-05-06 05:31 | 53.93957 | -30.99602 | 33080 ft | 511 kts | 87° |
| 2026-05-06 05:32 | 53.94731 | -30.87600 | 33082 ft | 510 kts | 87° |
| 2026-05-06 05:32 | 53.95492 | -30.75611 | 33093 ft | 509 kts | 87° |
| 2026-05-06 05:33 | 53.96237 | -30.63679 | 33086 ft | 508 kts | 87° |
| 2026-05-06 05:33 | 53.96965 | -30.51823 | 33089 ft | 508 kts | 87° |
| 2026-05-06 05:34 | 53.97687 | -30.39874 | 33090 ft | 508 kts | 88° |
| 2026-05-06 05:34 | 53.98395 | -30.27969 | 33093 ft | 507 kts | 88° |
| 2026-05-06 05:35 | 53.99086 | -30.16135 | 33094 ft | 506 kts | 88° |
| 2026-05-06 05:35 | 53.99769 | -30.04247 | 33097 ft | 505 kts | 88° |
| 2026-05-06 05:36 | 54.00408 | -29.92365 | 33098 ft | 504 kts | 89° |
| 2026-05-06 05:36 | 54.00862 | -29.80467 | 33099 ft | 503 kts | 90° |
| 2026-05-06 05:37 | 54.01283 | -29.68666 | 33108 ft | 504 kts | 90° |
| 2026-05-06 05:37 | 54.01724 | -29.56788 | 33109 ft | 504 kts | 89° |
| 2026-05-06 05:38 | 54.02170 | -29.44898 | 33104 ft | 504 kts | 89° |
| 2026-05-06 05:38 | 54.02606 | -29.33012 | 33124 ft | 504 kts | 90° |
| 2026-05-06 05:39 | 54.03029 | -29.21114 | 33122 ft | 504 kts | 89° |
| 2026-05-06 05:39 | 54.03438 | -29.09280 | 33121 ft | 504 kts | 89° |
| 2026-05-06 05:40 | 54.03836 | -28.97386 | 33113 ft | 505 kts | 89° |
| 2026-05-06 05:40 | 54.04221 | -28.85536 | 33121 ft | 505 kts | 89° |
| 2026-05-06 05:41 | 54.04600 | -28.73519 | 33124 ft | 505 kts | 89° |
| 2026-05-06 05:41 | 54.04962 | -28.61671 | 33126 ft | 506 kts | 89° |
| 2026-05-06 05:42 | 54.05317 | -28.49669 | 33123 ft | 506 kts | 89° |
| 2026-05-06 05:42 | 54.05657 | -28.37757 | 33136 ft | 506 kts | 89° |
| 2026-05-06 05:43 | 54.05987 | -28.25765 | 33131 ft | 507 kts | 89° |
| 2026-05-06 05:43 | 54.06304 | -28.13846 | 33132 ft | 507 kts | 89° |
| 2026-05-06 05:44 | 54.06609 | -28.01925 | 33132 ft | 507 kts | 89° |
| 2026-05-06 05:44 | 54.06905 | -27.89863 | 33135 ft | 507 kts | 89° |
| 2026-05-06 05:45 | 54.07186 | -27.77942 | 33138 ft | 508 kts | 89° |
| 2026-05-06 05:45 | 54.07457 | -27.65927 | 33133 ft | 508 kts | 89° |
| 2026-05-06 05:46 | 54.07675 | -27.55869 | 33133 ft | 508 kts | 89° |
| 2026-05-06 05:46 | 54.07964 | -27.41870 | 33138 ft | 509 kts | 89° |
| 2026-05-06 05:47 | 54.08200 | -27.29823 | 33139 ft | 509 kts | 89° |
| 2026-05-06 05:47 | 54.08387 | -27.19801 | 33137 ft | 509 kts | 89° |
| 2026-05-06 05:48 | 54.08602 | -27.07676 | 33140 ft | 510 kts | 89° |
| 2026-05-06 05:48 | 54.08804 | -26.95605 | 33139 ft | 510 kts | 89° |
| 2026-05-06 05:49 | 54.08994 | -26.83521 | 33138 ft | 511 kts | 89° |
| 2026-05-06 05:49 | 54.09171 | -26.71480 | 33141 ft | 511 kts | 89° |
| 2026-05-06 05:50 | 54.09337 | -26.59372 | 33137 ft | 512 kts | 89° |
| 2026-05-06 05:50 | 54.09491 | -26.47261 | 33138 ft | 512 kts | 89° |
| 2026-05-06 05:51 | 54.09634 | -26.35089 | 33141 ft | 512 kts | 89° |
| 2026-05-06 05:51 | 54.09763 | -26.23004 | 33137 ft | 513 kts | 89° |
| 2026-05-06 05:52 | 54.09881 | -26.10855 | 33136 ft | 513 kts | 89° |
| 2026-05-06 05:52 | 54.09986 | -25.98685 | 33137 ft | 514 kts | 89° |
| 2026-05-06 05:53 | 54.10080 | -25.86505 | 33135 ft | 514 kts | 89° |
| 2026-05-06 05:53 | 54.10161 | -25.74341 | 33138 ft | 514 kts | 89° |
| 2026-05-06 05:54 | 54.10230 | -25.62113 | 33135 ft | 515 kts | 90° |
| 2026-05-06 05:54 | 54.10287 | -25.49907 | 33134 ft | 515 kts | 90° |
| 2026-05-06 05:55 | 54.10331 | -25.37715 | 33133 ft | 515 kts | 90° |
| 2026-05-06 05:55 | 54.10363 | -25.25496 | 33133 ft | 515 kts | 90° |
| 2026-05-06 05:56 | 54.10383 | -25.13298 | 33133 ft | 515 kts | 90° |
| 2026-05-06 05:56 | 54.10390 | -25.01116 | 33131 ft | 515 kts | 90° |
| 2026-05-06 05:57 | 54.10385 | -24.88902 | 33129 ft | 515 kts | 90° |
| 2026-05-06 05:57 | 54.10368 | -24.76686 | 33128 ft | 516 kts | 90° |
| 2026-05-06 05:58 | 54.10338 | -24.64451 | 33125 ft | 516 kts | 90° |
| 2026-05-06 05:58 | 54.10295 | -24.52214 | 33127 ft | 516 kts | 90° |
| 2026-05-06 05:59 | 54.10241 | -24.40010 | 33125 ft | 516 kts | 90° |
| 2026-05-06 05:59 | 54.10174 | -24.27864 | 33125 ft | 516 kts | 90° |
| 2026-05-06 06:00 | 54.10095 | -24.15631 | 33120 ft | 516 kts | 90° |
| 2026-05-06 06:00 | 54.10003 | -24.03290 | 33123 ft | 516 kts | 90° |
| 2026-05-06 06:01 | 54.09899 | -23.91098 | 33121 ft | 516 kts | 90° |
| 2026-05-06 06:01 | 54.09783 | -23.78916 | 33119 ft | 517 kts | 90° |
| 2026-05-06 06:02 | 54.09654 | -23.66693 | 33118 ft | 517 kts | 90° |
| 2026-05-06 06:02 | 54.09512 | -23.54451 | 33118 ft | 517 kts | 90° |
| 2026-05-06 06:03 | 54.09358 | -23.42219 | 33119 ft | 517 kts | 90° |
| 2026-05-06 06:03 | 54.09191 | -23.29944 | 33112 ft | 517 kts | 90° |
| 2026-05-06 06:04 | 54.09013 | -23.17732 | 33113 ft | 517 kts | 90° |
| 2026-05-06 06:04 | 54.08822 | -23.05487 | 33115 ft | 517 kts | 90° |
| 2026-05-06 06:05 | 54.08618 | -22.93266 | 33111 ft | 517 kts | 90° |
| 2026-05-06 06:05 | 54.08401 | -22.80998 | 33108 ft | 517 kts | 90° |
| 2026-05-06 06:06 | 54.08173 | -22.68756 | 33108 ft | 517 kts | 90° |
| 2026-05-06 06:06 | 54.07932 | -22.56536 | 33108 ft | 517 kts | 90° |
| 2026-05-06 06:07 | 54.07679 | -22.44295 | 33105 ft | 517 kts | 90° |
| 2026-05-06 06:07 | 54.07414 | -22.32139 | 33105 ft | 517 kts | 90° |
| 2026-05-06 06:08 | 54.07134 | -22.19819 | 33105 ft | 518 kts | 90° |
| 2026-05-06 06:08 | 54.06846 | -22.07676 | 33101 ft | 518 kts | 90° |
| 2026-05-06 06:09 | 54.06541 | -21.95377 | 33108 ft | 518 kts | 90° |
| 2026-05-06 06:09 | 54.06225 | -21.83119 | 33097 ft | 518 kts | 90° |
| 2026-05-06 06:10 | 54.05896 | -21.70872 | 33101 ft | 519 kts | 90° |
| 2026-05-06 06:10 | 54.05553 | -21.58541 | 33104 ft | 519 kts | 90° |
| 2026-05-06 06:11 | 54.05201 | -21.46342 | 33092 ft | 519 kts | 90° |
| 2026-05-06 06:11 | 54.04832 | -21.34010 | 33098 ft | 519 kts | 90° |
| 2026-05-06 06:12 | 54.04455 | -21.21796 | 33104 ft | 519 kts | 90° |
| 2026-05-06 06:12 | 54.04061 | -21.09454 | 33092 ft | 519 kts | 90° |
| 2026-05-06 06:13 | 54.03659 | -20.97260 | 33096 ft | 520 kts | 90° |
| 2026-05-06 06:13 | 54.03241 | -20.84970 | 33093 ft | 520 kts | 90° |
| 2026-05-06 06:14 | 54.02809 | -20.72630 | 33091 ft | 519 kts | 90° |
| 2026-05-06 06:14 | 54.02367 | -20.60373 | 33099 ft | 519 kts | 91° |
| 2026-05-06 06:15 | 54.01916 | -20.48190 | 33096 ft | 519 kts | 91° |
| 2026-05-06 06:15 | 54.01449 | -20.35928 | 33094 ft | 519 kts | 91° |
| 2026-05-06 06:16 | 54.00972 | -20.23728 | 33094 ft | 519 kts | 91° |
| 2026-05-06 06:16 | 54.00479 | -20.11430 | 33091 ft | 519 kts | 91° |
| 2026-05-06 06:17 | 54.00080 | -19.99091 | 33089 ft | 517 kts | 85° |
| 2026-05-06 06:17 | 54.00250 | -19.86923 | 33083 ft | 516 kts | 85° |
| 2026-05-06 06:18 | 54.00489 | -19.74805 | 33089 ft | 516 kts | 84° |
| 2026-05-06 06:18 | 54.00724 | -19.62590 | 33087 ft | 516 kts | 84° |
| 2026-05-06 06:19 | 54.00938 | -19.50406 | 33087 ft | 516 kts | 85° |
| 2026-05-06 06:19 | 54.01134 | -19.38226 | 33084 ft | 516 kts | 85° |
| 2026-05-06 06:20 | 54.01319 | -19.25939 | 33083 ft | 516 kts | 85° |
| 2026-05-06 06:20 | 54.01490 | -19.13828 | 33085 ft | 516 kts | 85° |
| 2026-05-06 06:21 | 54.01649 | -19.01656 | 33071 ft | 516 kts | 85° |
| 2026-05-06 06:21 | 54.01797 | -18.89449 | 33090 ft | 515 kts | 85° |
| 2026-05-06 06:22 | 54.01932 | -18.77234 | 33090 ft | 516 kts | 85° |
| 2026-05-06 06:22 | 54.02054 | -18.65078 | 33086 ft | 516 kts | 85° |
| 2026-05-06 06:23 | 54.02165 | -18.52879 | 33085 ft | 516 kts | 85° |
| 2026-05-06 06:23 | 54.02263 | -18.40662 | 33080 ft | 516 kts | 85° |
| 2026-05-06 06:24 | 54.02348 | -18.28476 | 33084 ft | 516 kts | 85° |
| 2026-05-06 06:24 | 54.02421 | -18.16265 | 33083 ft | 516 kts | 85° |
| 2026-05-06 06:25 | 54.02482 | -18.04127 | 33085 ft | 516 kts | 85° |
| 2026-05-06 06:26 | 54.02550 | -17.85802 | 33086 ft | 515 kts | 85° |
| 2026-05-06 06:26 | 54.02581 | -17.73605 | 33087 ft | 515 kts | 85° |
| 2026-05-06 06:27 | 54.02598 | -17.61434 | 33087 ft | 515 kts | 85° |
| 2026-05-06 06:27 | 54.02604 | -17.49231 | 33086 ft | 515 kts | 85° |
| 2026-05-06 06:28 | 54.02597 | -17.37090 | 33084 ft | 515 kts | 85° |
| 2026-05-06 06:28 | 54.02578 | -17.24866 | 33085 ft | 515 kts | 86° |
| 2026-05-06 06:29 | 54.02547 | -17.12676 | 33084 ft | 515 kts | 86° |
| 2026-05-06 06:29 | 54.02502 | -17.00503 | 33084 ft | 516 kts | 86° |
| 2026-05-06 06:30 | 54.02446 | -16.88301 | 33086 ft | 516 kts | 86° |
| 2026-05-06 06:30 | 54.02377 | -16.76115 | 33089 ft | 516 kts | 86° |
| 2026-05-06 06:31 | 54.02296 | -16.63919 | 33089 ft | 516 kts | 86° |
| 2026-05-06 06:31 | 54.02203 | -16.51787 | 33085 ft | 516 kts | 86° |
| 2026-05-06 06:32 | 54.02097 | -16.39589 | 33082 ft | 516 kts | 86° |
| 2026-05-06 06:32 | 54.01979 | -16.27392 | 33086 ft | 516 kts | 86° |
| 2026-05-06 06:33 | 54.01849 | -16.15209 | 33085 ft | 516 kts | 86° |
| 2026-05-06 06:33 | 54.01706 | -16.02999 | 33088 ft | 516 kts | 86° |
| 2026-05-06 06:34 | 54.01579 | -15.92870 | 33085 ft | 516 kts | 87° |
| 2026-05-06 06:34 | 54.01414 | -15.80683 | 33086 ft | 516 kts | 87° |
| 2026-05-06 06:35 | 54.01237 | -15.68493 | 33085 ft | 516 kts | 87° |
| 2026-05-06 06:35 | 54.01047 | -15.56286 | 33084 ft | 516 kts | 87° |
| 2026-05-06 06:36 | 54.00845 | -15.44103 | 33086 ft | 516 kts | 87° |
| 2026-05-06 06:36 | 54.00631 | -15.31958 | 33083 ft | 516 kts | 87° |
| 2026-05-06 06:37 | 54.00403 | -15.19694 | 33082 ft | 516 kts | 88° |
| 2026-05-06 06:37 | 54.00165 | -15.07580 | 33088 ft | 516 kts | 88° |
| 2026-05-06 06:38 | 53.99932 | -14.95333 | 33080 ft | 516 kts | 86° |
| 2026-05-06 06:38 | 53.99960 | -14.83228 | 33082 ft | 514 kts | 85° |
| 2026-05-06 06:39 | 54.00063 | -14.70983 | 33082 ft | 514 kts | 85° |
| 2026-05-06 06:39 | 54.00112 | -14.58916 | 33081 ft | 515 kts | 85° |
| 2026-05-06 06:40 | 54.00120 | -14.46772 | 33081 ft | 515 kts | 86° |
| 2026-05-06 06:40 | 54.00107 | -14.34598 | 33079 ft | 515 kts | 86° |
| 2026-05-06 06:41 | 54.00083 | -14.22402 | 33082 ft | 515 kts | 86° |
| 2026-05-06 06:41 | 54.00049 | -14.10260 | 33079 ft | 515 kts | 86° |
| 2026-05-06 06:42 | 54.00003 | -13.98087 | 33103 ft | 516 kts | 86° |
| 2026-05-06 06:42 | 53.99690 | -13.85876 | 33235 ft | 518 kts | 90° |
| 2026-05-06 06:43 | 53.99169 | -13.73622 | 33339 ft | 518 kts | 90° |
| 2026-05-06 06:43 | 53.98678 | -13.61434 | 33459 ft | 518 kts | 89° |
| 2026-05-06 06:44 | 53.98220 | -13.49232 | 33562 ft | 517 kts | 89° |
| 2026-05-06 06:44 | 53.97765 | -13.37086 | 33676 ft | 517 kts | 89° |
| 2026-05-06 06:45 | 53.97295 | -13.24886 | 33755 ft | 517 kts | 89° |
| 2026-05-06 06:45 | 53.96810 | -13.12655 | 33854 ft | 517 kts | 90° |
| 2026-05-06 06:46 | 53.96312 | -13.00465 | 33923 ft | 517 kts | 90° |
| 2026-05-06 06:46 | 53.95803 | -12.88294 | 34016 ft | 517 kts | 90° |
| 2026-05-06 06:47 | 53.95280 | -12.76120 | 34094 ft | 517 kts | 90° |
| 2026-05-06 06:47 | 53.94745 | -12.63950 | 34143 ft | 517 kts | 90° |
| 2026-05-06 06:48 | 53.94198 | -12.51785 | 34207 ft | 517 kts | 90° |
| 2026-05-06 06:48 | 53.93642 | -12.39683 | 34248 ft | 518 kts | 90° |
| 2026-05-06 06:49 | 53.93069 | -12.27480 | 34304 ft | 518 kts | 91° |
| 2026-05-06 06:49 | 53.92486 | -12.15314 | 34355 ft | 518 kts | 91° |
| 2026-05-06 06:50 | 53.91890 | -12.03140 | 34422 ft | 518 kts | 91° |
| 2026-05-06 06:50 | 53.91279 | -11.90921 | 34451 ft | 519 kts | 91° |
| 2026-05-06 06:51 | 53.90658 | -11.78759 | 34498 ft | 519 kts | 91° |
| 2026-05-06 06:51 | 53.90022 | -11.66546 | 34539 ft | 519 kts | 91° |
| 2026-05-06 06:52 | 53.89379 | -11.54439 | 34596 ft | 519 kts | 92° |
| 2026-05-06 06:52 | 53.88716 | -11.42179 | 34641 ft | 519 kts | 92° |
| 2026-05-06 06:53 | 53.88044 | -11.29997 | 34693 ft | 519 kts | 92° |
| 2026-05-06 06:53 | 53.87362 | -11.17854 | 34732 ft | 520 kts | 92° |
| 2026-05-06 06:54 | 53.86662 | -11.05620 | 34772 ft | 520 kts | 92° |
| 2026-05-06 06:54 | 53.85956 | -10.93493 | 34811 ft | 520 kts | 93° |
| 2026-05-06 06:55 | 53.85563 | -10.86851 | 34825 ft | 520 kts | 93° |
| 2026-05-06 06:55 | 53.84848 | -10.74895 | 34859 ft | 520 kts | 93° |
| 2026-05-06 06:56 | 53.84106 | -10.62707 | 34875 ft | 521 kts | 93° |
| 2026-05-06 06:56 | 53.83353 | -10.50527 | 34887 ft | 522 kts | 94° |
| 2026-05-06 06:57 | 53.82581 | -10.38264 | 34917 ft | 522 kts | 94° |
| 2026-05-06 06:57 | 53.81801 | -10.26078 | 34937 ft | 522 kts | 94° |
| 2026-05-06 06:58 | 53.81191 | -10.16671 | 34966 ft | 522 kts | 94° |
| 2026-05-06 06:58 | 53.80389 | -10.04478 | 34985 ft | 522 kts | 94° |
| 2026-05-06 06:59 | 53.79570 | -9.92251 | 35000 ft | 523 kts | 95° |
| 2026-05-06 06:59 | 53.78740 | -9.80014 | 35013 ft | 523 kts | 95° |
| 2026-05-06 07:00 | 53.77897 | -9.67774 | 35021 ft | 524 kts | 95° |
| 2026-05-06 07:00 | 53.77075 | -9.56027 | 35056 ft | 524 kts | 95° |
| 2026-05-06 07:01 | 53.76207 | -9.43799 | 35053 ft | 523 kts | 95° |
| 2026-05-06 07:01 | 53.75328 | -9.31599 | 35049 ft | 522 kts | 95° |
| 2026-05-06 07:02 | 53.74443 | -9.19493 | 35046 ft | 523 kts | 96° |
| 2026-05-06 07:02 | 53.73541 | -9.07320 | 35044 ft | 523 kts | 96° |
| 2026-05-06 07:03 | 53.72617 | -8.95035 | 35044 ft | 523 kts | 96° |
| 2026-05-06 07:03 | 53.71690 | -8.82863 | 35042 ft | 524 kts | 96° |
| 2026-05-06 07:04 | 53.70751 | -8.70718 | 35042 ft | 524 kts | 96° |
| 2026-05-06 07:04 | 53.69791 | -8.58450 | 35041 ft | 525 kts | 97° |
| 2026-05-06 07:05 | 53.68821 | -8.46231 | 35040 ft | 525 kts | 97° |
| 2026-05-06 07:05 | 53.67847 | -8.34119 | 35033 ft | 525 kts | 97° |
| 2026-05-06 07:06 | 53.66852 | -8.21909 | 35031 ft | 525 kts | 97° |
| 2026-05-06 07:06 | 53.65847 | -8.09736 | 35029 ft | 525 kts | 97° |
| 2026-05-06 07:07 | 53.64827 | -7.97537 | 35030 ft | 525 kts | 97° |
| 2026-05-06 07:07 | 53.63800 | -7.85403 | 35031 ft | 525 kts | 98° |
| 2026-05-06 07:08 | 53.62754 | -7.73191 | 35033 ft | 525 kts | 98° |
| 2026-05-06 07:08 | 53.61701 | -7.61064 | 35037 ft | 524 kts | 98° |
| 2026-05-06 07:09 | 53.60631 | -7.48882 | 35025 ft | 525 kts | 98° |
| 2026-05-06 07:09 | 53.59563 | -7.36843 | 35036 ft | 524 kts | 98° |
| 2026-05-06 07:10 | 53.58782 | -7.24564 | 35033 ft | 524 kts | 94° |
| 2026-05-06 07:10 | 53.58224 | -7.12406 | 35036 ft | 524 kts | 94° |
| 2026-05-06 07:11 | 53.57592 | -7.00134 | 35038 ft | 524 kts | 95° |
| 2026-05-06 07:11 | 53.56899 | -6.88003 | 35037 ft | 523 kts | 95° |
| 2026-05-06 07:12 | 53.56177 | -6.75830 | 35042 ft | 523 kts | 96° |
| 2026-05-06 07:12 | 53.55439 | -6.63577 | 35042 ft | 524 kts | 96° |
| 2026-05-06 07:13 | 53.54698 | -6.51456 | 35044 ft | 524 kts | 96° |
| 2026-05-06 07:13 | 53.53941 | -6.39257 | 35045 ft | 524 kts | 96° |
| 2026-05-06 07:14 | 53.53173 | -6.27078 | 35047 ft | 524 kts | 96° |
| 2026-05-06 07:14 | 53.52391 | -6.14893 | 35049 ft | 525 kts | 96° |
| 2026-05-06 07:15 | 53.51600 | -6.02744 | 35045 ft | 525 kts | 96° |
| 2026-05-06 07:15 | 53.50792 | -5.90533 | 35043 ft | 525 kts | 97° |
| 2026-05-06 07:16 | 53.49974 | -5.78381 | 35036 ft | 525 kts | 97° |
| 2026-05-06 07:16 | 53.49141 | -5.66175 | 35035 ft | 525 kts | 97° |
| 2026-05-06 07:17 | 53.48296 | -5.53993 | 35033 ft | 525 kts | 97° |
| 2026-05-06 07:17 | 53.47567 | -5.41821 | 35035 ft | 525 kts | 93° |
| 2026-05-06 07:18 | 53.47302 | -5.29585 | 35038 ft | 525 kts | 92° |
| 2026-05-06 07:18 | 53.47062 | -5.17352 | 35035 ft | 525 kts | 92° |
| 2026-05-06 07:19 | 53.46735 | -5.05113 | 35029 ft | 525 kts | 93° |
| 2026-05-06 07:19 | 53.46338 | -4.92884 | 35030 ft | 525 kts | 94° |
| 2026-05-06 07:20 | 53.45928 | -4.80672 | 35027 ft | 525 kts | 94° |
| 2026-05-06 07:20 | 53.45523 | -4.68667 | 35022 ft | 525 kts | 94° |
| 2026-05-06 07:21 | 53.45101 | -4.56392 | 35021 ft | 526 kts | 94° |
| 2026-05-06 07:21 | 53.44661 | -4.44113 | 35022 ft | 526 kts | 94° |
| 2026-05-06 07:22 | 53.44209 | -4.31924 | 35024 ft | 526 kts | 94° |
| 2026-05-06 07:22 | 53.43833 | -4.21756 | 35028 ft | 526 kts | 94° |
| 2026-05-06 07:23 | 53.43275 | -4.07465 | 35030 ft | 526 kts | 94° |
| 2026-05-06 07:23 | 53.42866 | -3.97254 | 35035 ft | 526 kts | 94° |
| 2026-05-06 07:24 | 53.42376 | -3.85036 | 35040 ft | 526 kts | 94° |
| 2026-05-06 07:24 | 53.41864 | -3.72849 | 35040 ft | 526 kts | 95° |
| 2026-05-06 07:25 | 53.41337 | -3.60594 | 35044 ft | 526 kts | 95° |
| 2026-05-06 07:25 | 53.40810 | -3.48382 | 35048 ft | 526 kts | 95° |
| 2026-05-06 07:26 | 53.40258 | -3.36156 | 35059 ft | 526 kts | 95° |
| 2026-05-06 07:26 | 53.39694 | -3.23948 | 35063 ft | 526 kts | 95° |
| 2026-05-06 07:27 | 53.39124 | -3.11785 | 35068 ft | 526 kts | 95° |
| 2026-05-06 07:27 | 53.38642 | -2.99602 | 35074 ft | 525 kts | 94° |
| 2026-05-06 07:28 | 53.38205 | -2.87277 | 35073 ft | 525 kts | 94° |
| 2026-05-06 07:28 | 53.37506 | -2.69021 | 35074 ft | 525 kts | 94° |
| 2026-05-06 07:29 | 53.37013 | -2.56887 | 35066 ft | 524 kts | 95° |
| 2026-05-06 07:29 | 53.36503 | -2.44661 | 35072 ft | 524 kts | 95° |
| 2026-05-06 07:30 | 53.35984 | -2.32515 | 35073 ft | 524 kts | 95° |
| 2026-05-06 07:30 | 53.35126 | -2.20397 | 35073 ft | 523 kts | 100° |
| 2026-05-06 07:31 | 53.33915 | -2.08420 | 35072 ft | 522 kts | 101° |
| 2026-05-06 07:31 | 53.32662 | -1.96467 | 35064 ft | 522 kts | 101° |
| 2026-05-06 07:32 | 53.31413 | -1.84588 | 35054 ft | 522 kts | 101° |
| 2026-05-06 07:32 | 53.30170 | -1.72828 | 35050 ft | 521 kts | 101° |
| 2026-05-06 07:33 | 53.28909 | -1.60978 | 35047 ft | 521 kts | 101° |
| 2026-05-06 07:33 | 53.27634 | -1.49082 | 35043 ft | 521 kts | 101° |
| 2026-05-06 07:34 | 53.26331 | -1.37142 | 35041 ft | 520 kts | 101° |
| 2026-05-06 07:34 | 53.25027 | -1.25291 | 35041 ft | 520 kts | 101° |
| 2026-05-06 07:35 | 53.23708 | -1.13397 | 35038 ft | 520 kts | 101° |
| 2026-05-06 07:35 | 53.22382 | -1.01550 | 35033 ft | 520 kts | 101° |
| 2026-05-06 07:36 | 53.21045 | -0.89708 | 35032 ft | 519 kts | 102° |
| 2026-05-06 07:36 | 53.19701 | -0.77862 | 35026 ft | 519 kts | 102° |
| 2026-05-06 07:37 | 53.18337 | -0.66035 | 35022 ft | 519 kts | 102° |
| 2026-05-06 07:37 | 53.16973 | -0.54329 | 35021 ft | 518 kts | 102° |
| 2026-05-06 07:38 | 53.15585 | -0.42515 | 35019 ft | 518 kts | 102° |
| 2026-05-06 07:38 | 53.14195 | -0.30766 | 35019 ft | 517 kts | 102° |
| 2026-05-06 07:39 | 53.12784 | -0.18940 | 35021 ft | 517 kts | 102° |
| 2026-05-06 07:39 | 53.11372 | -0.07224 | 35022 ft | 517 kts | 102° |
| 2026-05-06 07:40 | 53.09947 | 0.04505 | 35018 ft | 517 kts | 102° |
| 2026-05-06 07:40 | 53.08511 | 0.16224 | 35007 ft | 517 kts | 102° |
| 2026-05-06 07:41 | 53.07077 | 0.27820 | 34998 ft | 517 kts | 102° |
| 2026-05-06 07:41 | 53.05604 | 0.39638 | 34990 ft | 517 kts | 103° |
| 2026-05-06 07:42 | 53.04129 | 0.51352 | 34984 ft | 518 kts | 103° |
| 2026-05-06 07:42 | 53.02646 | 0.63043 | 34983 ft | 518 kts | 103° |
| 2026-05-06 07:43 | 53.01160 | 0.74665 | 34980 ft | 518 kts | 103° |
| 2026-05-06 07:43 | 52.99643 | 0.86422 | 34978 ft | 517 kts | 103° |
| 2026-05-06 07:44 | 52.98126 | 0.98089 | 34971 ft | 518 kts | 103° |
| 2026-05-06 07:44 | 52.96669 | 1.09802 | 35025 ft | 518 kts | 102° |
| 2026-05-06 07:45 | 52.95349 | 1.21554 | 35076 ft | 518 kts | 101° |
| 2026-05-06 07:45 | 52.94017 | 1.33285 | 35114 ft | 518 kts | 102° |
| 2026-05-06 07:46 | 52.92649 | 1.44998 | 35193 ft | 516 kts | 102° |
| 2026-05-06 07:46 | 52.91736 | 1.52693 | 35233 ft | 516 kts | 102° |
| 2026-05-06 07:47 | 52.90599 | 1.62206 | 35277 ft | 516 kts | 102° |
| 2026-05-06 07:47 | 52.89196 | 1.73851 | 35339 ft | 515 kts | 102° |
| 2026-05-06 07:48 | 52.87785 | 1.85471 | 35409 ft | 514 kts | 102° |
| 2026-05-06 07:48 | 52.86361 | 1.97098 | 35459 ft | 513 kts | 102° |
| 2026-05-06 07:49 | 52.85703 | 2.02442 | 35765 ft | 507 kts | 103° |
| 2026-05-06 07:49 | 52.85010 | 2.08053 | 36322 ft | 498 kts | 103° |
| 2026-05-06 07:49 | 52.84318 | 2.13629 | 36654 ft | 495 kts | 103° |
| 2026-05-06 07:49 | 52.83627 | 2.19171 | 36872 ft | 494 kts | 103° |
| 2026-05-06 07:50 | 52.82219 | 2.30369 | 36953 ft | 499 kts | 103° |
| 2026-05-06 07:50 | 52.80801 | 2.41570 | 36950 ft | 497 kts | 103° |
| 2026-05-06 07:51 | 52.79385 | 2.52732 | 36951 ft | 497 kts | 103° |
| 2026-05-06 07:51 | 52.77960 | 2.63855 | 36946 ft | 496 kts | 103° |
| 2026-05-06 07:52 | 52.76502 | 2.75036 | 36951 ft | 496 kts | 103° |
| 2026-05-06 07:52 | 52.75052 | 2.86176 | 36944 ft | 496 kts | 103° |
| 2026-05-06 07:53 | 52.73588 | 2.97295 | 36940 ft | 497 kts | 104° |
| 2026-05-06 07:53 | 52.72147 | 3.08459 | 36938 ft | 497 kts | 103° |
| 2026-05-06 07:54 | 52.70778 | 3.19650 | 36933 ft | 498 kts | 103° |
| 2026-05-06 07:54 | 52.69410 | 3.30760 | 36930 ft | 498 kts | 103° |
| 2026-05-06 07:55 | 52.68000 | 3.42015 | 36927 ft | 499 kts | 103° |
| 2026-05-06 07:55 | 52.66591 | 3.53119 | 36924 ft | 498 kts | 103° |
| 2026-05-06 07:56 | 52.65154 | 3.64358 | 36932 ft | 498 kts | 103° |
| 2026-05-06 07:56 | 52.63726 | 3.75436 | 36916 ft | 498 kts | 104° |
| 2026-05-06 07:57 | 52.62286 | 3.86523 | 36930 ft | 497 kts | 104° |
| 2026-05-06 07:57 | 52.60824 | 3.97675 | 36913 ft | 497 kts | 104° |
| 2026-05-06 07:58 | 52.59356 | 4.08797 | 36895 ft | 496 kts | 104° |
| 2026-05-06 07:58 | 52.57890 | 4.19831 | 36910 ft | 495 kts | 104° |
| 2026-05-06 07:59 | 52.56411 | 4.30868 | 36882 ft | 495 kts | 104° |
| 2026-05-06 07:59 | 52.54999 | 4.41329 | 36894 ft | 494 kts | 104° |
| 2026-05-06 08:00 | 52.53504 | 4.52319 | 36885 ft | 493 kts | 104° |
| 2026-05-06 08:00 | 52.51992 | 4.63348 | 36878 ft | 493 kts | 104° |
| 2026-05-06 08:01 | 52.50494 | 4.74210 | 36878 ft | 493 kts | 104° |
| 2026-05-06 08:01 | 52.48954 | 4.85282 | 36879 ft | 492 kts | 104° |
| 2026-05-06 08:02 | 52.47437 | 4.96111 | 36876 ft | 492 kts | 105° |
| 2026-05-06 08:02 | 52.45893 | 5.07051 | 36875 ft | 492 kts | 105° |
| 2026-05-06 08:03 | 52.44340 | 5.17980 | 36861 ft | 492 kts | 105° |
| 2026-05-06 08:03 | 52.42791 | 5.28803 | 36850 ft | 492 kts | 105° |
| 2026-05-06 08:04 | 52.41214 | 5.39749 | 36857 ft | 493 kts | 105° |
| 2026-05-06 08:04 | 52.39629 | 5.50662 | 36862 ft | 493 kts | 105° |
| 2026-05-06 08:05 | 52.38032 | 5.61585 | 36860 ft | 493 kts | 105° |
| 2026-05-06 08:05 | 52.36430 | 5.72468 | 36856 ft | 493 kts | 105° |
| 2026-05-06 08:06 | 52.34814 | 5.83370 | 36855 ft | 492 kts | 105° |
| 2026-05-06 08:06 | 52.33208 | 5.94133 | 36848 ft | 492 kts | 105° |
| 2026-05-06 08:07 | 52.31577 | 6.04985 | 36846 ft | 492 kts | 105° |
| 2026-05-06 08:07 | 52.29924 | 6.15909 | 36843 ft | 492 kts | 106° |
| 2026-05-06 08:08 | 52.28266 | 6.26787 | 36841 ft | 498 kts | 106° |
| 2026-05-06 08:08 | 52.26574 | 6.37810 | 36835 ft | 503 kts | 106° |
| 2026-05-06 08:09 | 52.24863 | 6.48894 | 36833 ft | 505 kts | 106° |
| 2026-05-06 08:09 | 52.23126 | 6.60065 | 36830 ft | 506 kts | 106° |
| 2026-05-06 08:10 | 52.21390 | 6.71157 | 36828 ft | 505 kts | 106° |
| 2026-05-06 08:10 | 52.19944 | 6.80338 | 36827 ft | 505 kts | 106° |
| 2026-05-06 08:11 | 52.17908 | 6.93176 | 36821 ft | 504 kts | 107° |
| 2026-05-06 08:11 | 52.16421 | 7.02487 | 36824 ft | 503 kts | 107° |
| 2026-05-06 08:12 | 52.14660 | 7.13464 | 36820 ft | 503 kts | 107° |
| 2026-05-06 08:12 | 52.12640 | 7.26265 | 36814 ft | 503 kts | 106° |
| 2026-05-06 08:13 | 52.11193 | 7.35426 | 36808 ft | 503 kts | 106° |
| 2026-05-06 08:13 | 52.09432 | 7.46480 | 36805 ft | 502 kts | 107° |
| 2026-05-06 08:14 | 52.07675 | 7.57417 | 36801 ft | 502 kts | 107° |
| 2026-05-06 08:14 | 52.05902 | 7.68377 | 36801 ft | 502 kts | 107° |
| 2026-05-06 08:15 | 52.04121 | 7.79315 | 36803 ft | 503 kts | 107° |
| 2026-05-06 08:15 | 52.02316 | 7.90331 | 36799 ft | 503 kts | 107° |
| 2026-05-06 08:16 | 52.00516 | 8.01250 | 36800 ft | 503 kts | 107° |
| 2026-05-06 08:16 | 51.98695 | 8.12223 | 36799 ft | 504 kts | 107° |
| 2026-05-06 08:17 | 51.96865 | 8.23177 | 36793 ft | 504 kts | 107° |
| 2026-05-06 08:17 | 51.95016 | 8.34172 | 36789 ft | 505 kts | 107° |
| 2026-05-06 08:18 | 51.93168 | 8.45097 | 36785 ft | 505 kts | 107° |
| 2026-05-06 08:18 | 51.91298 | 8.56088 | 36780 ft | 505 kts | 108° |
| 2026-05-06 08:19 | 51.89432 | 8.66981 | 36775 ft | 506 kts | 108° |
| 2026-05-06 08:19 | 51.87528 | 8.78029 | 36786 ft | 506 kts | 108° |
| 2026-05-06 08:20 | 51.85624 | 8.89003 | 36765 ft | 506 kts | 108° |
| 2026-05-06 08:20 | 51.83719 | 8.99921 | 36771 ft | 506 kts | 108° |
| 2026-05-06 08:21 | 51.81801 | 9.10840 | 36761 ft | 506 kts | 108° |
| 2026-05-06 08:21 | 51.79857 | 9.21846 | 36758 ft | 507 kts | 108° |
| 2026-05-06 08:22 | 51.77915 | 9.32773 | 36759 ft | 507 kts | 108° |
| 2026-05-06 08:22 | 51.75959 | 9.43702 | 36759 ft | 508 kts | 108° |
| 2026-05-06 08:23 | 51.73998 | 9.54603 | 36758 ft | 508 kts | 109° |
| 2026-05-06 08:23 | 51.72025 | 9.65506 | 36754 ft | 508 kts | 109° |
| 2026-05-06 08:24 | 51.70037 | 9.76422 | 36758 ft | 509 kts | 109° |
| 2026-05-06 08:24 | 51.68024 | 9.87411 | 36746 ft | 510 kts | 109° |
| 2026-05-06 08:25 | 51.66000 | 9.98393 | 36742 ft | 510 kts | 109° |
| 2026-05-06 08:25 | 51.63977 | 10.09313 | 36748 ft | 510 kts | 109° |
| 2026-05-06 08:26 | 51.61938 | 10.20247 | 36748 ft | 511 kts | 109° |
| 2026-05-06 08:26 | 51.59881 | 10.31211 | 36746 ft | 511 kts | 109° |
| 2026-05-06 08:27 | 51.57814 | 10.42160 | 36746 ft | 512 kts | 110° |
| 2026-05-06 08:27 | 51.55740 | 10.53085 | 36749 ft | 512 kts | 110° |
| 2026-05-06 08:28 | 51.53655 | 10.64013 | 36755 ft | 512 kts | 110° |
| 2026-05-06 08:28 | 51.51562 | 10.74963 | 36753 ft | 512 kts | 110° |
| 2026-05-06 08:29 | 51.49458 | 10.85911 | 36758 ft | 512 kts | 110° |
| 2026-05-06 08:29 | 51.47346 | 10.96831 | 36759 ft | 513 kts | 110° |
| 2026-05-06 08:30 | 51.45226 | 11.07734 | 36760 ft | 513 kts | 110° |
| 2026-05-06 08:30 | 51.43089 | 11.18663 | 36761 ft | 513 kts | 110° |
| 2026-05-06 08:31 | 51.40958 | 11.29498 | 36756 ft | 513 kts | 110° |
| 2026-05-06 08:31 | 51.38804 | 11.40391 | 36777 ft | 513 kts | 111° |
| 2026-05-06 08:32 | 51.36642 | 11.51259 | 36772 ft | 514 kts | 111° |
| 2026-05-06 08:32 | 51.34568 | 11.61631 | 36768 ft | 514 kts | 111° |
| 2026-05-06 08:33 | 51.32360 | 11.72610 | 36774 ft | 514 kts | 111° |
| 2026-05-06 08:33 | 51.30158 | 11.83501 | 36772 ft | 514 kts | 111° |
| 2026-05-06 08:34 | 51.26840 | 11.99794 | 36775 ft | 515 kts | 111° |
| 2026-05-06 08:35 | 51.24622 | 12.10614 | 36778 ft | 516 kts | 111° |
| 2026-05-06 08:35 | 51.22384 | 12.21475 | 36772 ft | 516 kts | 111° |
| 2026-05-06 08:36 | 51.20132 | 12.32340 | 36777 ft | 517 kts | 111° |
| 2026-05-06 08:36 | 51.17868 | 12.43204 | 36778 ft | 517 kts | 111° |
| 2026-05-06 08:37 | 51.15621 | 12.53927 | 36773 ft | 518 kts | 112° |
| 2026-05-06 08:37 | 51.13331 | 12.64798 | 36777 ft | 518 kts | 112° |
| 2026-05-06 08:38 | 51.11048 | 12.75580 | 36773 ft | 518 kts | 112° |
| 2026-05-06 08:38 | 51.08751 | 12.86371 | 36773 ft | 519 kts | 112° |
| 2026-05-06 08:39 | 51.06408 | 12.97318 | 36775 ft | 519 kts | 112° |
| 2026-05-06 08:39 | 51.04080 | 13.08140 | 36774 ft | 519 kts | 112° |
| 2026-05-06 08:40 | 51.01759 | 13.18870 | 36774 ft | 519 kts | 112° |
| 2026-05-06 08:40 | 50.99379 | 13.29813 | 36773 ft | 519 kts | 112° |
| 2026-05-06 08:41 | 50.97002 | 13.40688 | 36774 ft | 519 kts | 112° |
| 2026-05-06 08:41 | 50.94636 | 13.51453 | 36761 ft | 519 kts | 113° |
| 2026-05-06 08:42 | 50.92252 | 13.62247 | 36778 ft | 519 kts | 113° |
| 2026-05-06 08:42 | 50.89846 | 13.73077 | 36775 ft | 519 kts | 113° |
| 2026-05-06 08:43 | 50.87449 | 13.83818 | 36776 ft | 519 kts | 113° |
| 2026-05-06 08:43 | 50.84977 | 13.94607 | 36773 ft | 518 kts | 117° |
| 2026-05-06 08:44 | 50.81262 | 14.04061 | 36775 ft | 505 kts | 136° |
| 2026-05-06 08:44 | 50.76389 | 14.11985 | 36778 ft | 503 kts | 139° |
| 2026-05-06 08:45 | 50.71395 | 14.19818 | 36786 ft | 503 kts | 140° |
| 2026-05-06 08:45 | 50.66462 | 14.27569 | 36788 ft | 503 kts | 140° |
| 2026-05-06 08:46 | 50.61513 | 14.35359 | 36795 ft | 504 kts | 140° |
| 2026-05-06 08:46 | 50.56519 | 14.43204 | 36794 ft | 504 kts | 140° |
| 2026-05-06 08:47 | 50.51585 | 14.50928 | 36797 ft | 504 kts | 140° |
| 2026-05-06 08:47 | 50.46636 | 14.58650 | 36797 ft | 504 kts | 140° |
| 2026-05-06 08:48 | 50.41640 | 14.66422 | 36800 ft | 504 kts | 140° |
| 2026-05-06 08:48 | 50.36725 | 14.74044 | 36802 ft | 503 kts | 140° |
| 2026-05-06 08:49 | 50.31754 | 14.81728 | 36802 ft | 503 kts | 140° |
| 2026-05-06 08:49 | 50.26778 | 14.89396 | 36807 ft | 503 kts | 141° |
| 2026-05-06 08:50 | 50.21818 | 14.97014 | 36811 ft | 504 kts | 141° |
| 2026-05-06 08:50 | 50.16804 | 15.04691 | 36812 ft | 504 kts | 141° |
| 2026-05-06 08:51 | 50.11785 | 15.12354 | 36811 ft | 504 kts | 141° |
| 2026-05-06 08:51 | 50.06761 | 15.19998 | 36812 ft | 504 kts | 141° |
| 2026-05-06 08:52 | 50.01752 | 15.27598 | 36821 ft | 504 kts | 141° |
| 2026-05-06 08:52 | 49.96725 | 15.35205 | 36825 ft | 504 kts | 141° |
| 2026-05-06 08:53 | 49.91721 | 15.42753 | 36827 ft | 504 kts | 141° |
| 2026-05-06 08:53 | 49.86667 | 15.50355 | 36836 ft | 504 kts | 141° |
| 2026-05-06 08:54 | 49.81659 | 15.57862 | 36839 ft | 504 kts | 141° |
| 2026-05-06 08:54 | 49.76610 | 15.65404 | 36827 ft | 504 kts | 141° |
| 2026-05-06 08:55 | 49.71543 | 15.72950 | 36828 ft | 504 kts | 141° |
| 2026-05-06 08:55 | 49.66493 | 15.80449 | 36840 ft | 503 kts | 141° |
| 2026-05-06 08:56 | 49.61470 | 15.87887 | 36840 ft | 502 kts | 141° |
| 2026-05-06 08:56 | 49.56439 | 15.95315 | 36838 ft | 501 kts | 141° |
| 2026-05-06 08:57 | 49.51402 | 16.02729 | 36840 ft | 501 kts | 142° |
| 2026-05-06 08:57 | 49.46356 | 16.10132 | 36844 ft | 499 kts | 142° |
| 2026-05-06 08:58 | 49.41335 | 16.17477 | 36849 ft | 498 kts | 142° |
| 2026-05-06 08:58 | 49.36311 | 16.24805 | 36851 ft | 498 kts | 142° |
| 2026-05-06 08:59 | 49.31314 | 16.32071 | 36852 ft | 497 kts | 142° |
| 2026-05-06 08:59 | 49.26272 | 16.39383 | 36854 ft | 497 kts | 142° |
| 2026-05-06 09:00 | 49.22097 | 16.45419 | 36852 ft | 496 kts | 142° |
| 2026-05-06 09:00 | 49.17133 | 16.52577 | 36868 ft | 496 kts | 142° |
| 2026-05-06 09:01 | 49.12110 | 16.59800 | 36859 ft | 496 kts | 142° |
| 2026-05-06 09:01 | 49.07070 | 16.67027 | 36855 ft | 496 kts | 142° |
| 2026-05-06 09:02 | 49.02040 | 16.74217 | 36853 ft | 496 kts | 142° |
| 2026-05-06 09:02 | 48.97004 | 16.81396 | 36859 ft | 496 kts | 142° |
| 2026-05-06 09:03 | 48.91965 | 16.88559 | 36857 ft | 496 kts | 142° |
| 2026-05-06 09:03 | 48.86903 | 16.95734 | 36859 ft | 497 kts | 142° |
| 2026-05-06 09:04 | 48.81840 | 17.02889 | 36862 ft | 497 kts | 142° |
| 2026-05-06 09:04 | 48.77281 | 17.10858 | 36871 ft | 509 kts | 126° |
| 2026-05-06 09:05 | 48.73810 | 17.20253 | 36873 ft | 513 kts | 122° |
| 2026-05-06 09:05 | 48.70470 | 17.29756 | 36873 ft | 513 kts | 122° |
| 2026-05-06 09:06 | 48.67080 | 17.39313 | 36878 ft | 513 kts | 122° |
| 2026-05-06 09:06 | 48.63674 | 17.48808 | 36880 ft | 513 kts | 123° |
| 2026-05-06 09:07 | 48.60269 | 17.58166 | 36881 ft | 512 kts | 124° |
| 2026-05-06 09:07 | 48.56489 | 17.67233 | 36883 ft | 510 kts | 127° |
| 2026-05-06 09:08 | 48.52565 | 17.76280 | 36884 ft | 510 kts | 127° |
| 2026-05-06 09:08 | 48.48740 | 17.85273 | 36886 ft | 510 kts | 126° |
| 2026-05-06 09:09 | 48.44951 | 17.94276 | 36887 ft | 510 kts | 126° |
| 2026-05-06 09:09 | 48.41199 | 18.03183 | 36886 ft | 510 kts | 126° |
| 2026-05-06 09:10 | 48.37356 | 18.12265 | 36897 ft | 510 kts | 126° |
| 2026-05-06 09:10 | 48.33524 | 18.21282 | 36900 ft | 511 kts | 126° |
| 2026-05-06 09:11 | 48.29719 | 18.30208 | 36903 ft | 511 kts | 126° |
| 2026-05-06 09:11 | 48.25886 | 18.39171 | 36901 ft | 511 kts | 126° |
| 2026-05-06 09:12 | 48.22054 | 18.48100 | 36905 ft | 511 kts | 126° |
| 2026-05-06 09:12 | 48.17948 | 18.56812 | 36909 ft | 506 kts | 135° |
| 2026-05-06 09:13 | 48.13305 | 18.64710 | 36908 ft | 506 kts | 136° |
| 2026-05-06 09:13 | 48.08587 | 18.72539 | 36908 ft | 506 kts | 136° |
| 2026-05-06 09:14 | 48.03883 | 18.80323 | 36917 ft | 506 kts | 136° |
| 2026-05-06 09:14 | 47.99168 | 18.88126 | 36894 ft | 507 kts | 136° |
| 2026-05-06 09:15 | 47.97586 | 18.90740 | 36895 ft | 507 kts | 136° |